<?xml version="1.0" encoding="UTF-8" standalone="no" ?>
<gpx xmlns="http://www.topografix.com/GPX/1/1" xmlns:xsi="http://www.w3.org/2001/XMLSchema-instance" xsi:schemaLocation="http://www.topografix.com/GPX/1/1 http://www.topografix.com/GPX/1/1/gpx.xsd" version="1.1" creator="VisuGPX - https://www.visugpx.com">
  <metadata>
    <name>ROP_LacanauDeMios_20km</name>
  </metadata>
  <trk>
    <name><![CDATA[ROP_LacanauDeMios_20km]]></name>
    <extensions>
      <line xmlns="http://www.topografix.com/GPX/gpx_style/0/2">
        <color>0000FF</color>
        <width>4</width>
      </line>
    </extensions>
    <trkseg>
      <trkpt lat="44.65125" lon="-0.89541">
        <ele>30.8</ele>
        <time>2021-06-01T10:00:00.000Z</time>
      </trkpt>
      <trkpt lat="44.65125" lon="-0.89541">
        <ele>30.8</ele>
        <time>2021-06-01T10:00:00.000Z</time>
      </trkpt>
      <trkpt lat="44.65143" lon="-0.89537">
        <ele>31.2</ele>
        <time>2021-06-01T10:00:06.267Z</time>
      </trkpt>
      <trkpt lat="44.6516" lon="-0.89545">
        <ele>31.3</ele>
        <time>2021-06-01T10:00:11.458Z</time>
      </trkpt>
      <trkpt lat="44.65177" lon="-0.89561">
        <ele>31.2</ele>
        <time>2021-06-01T10:00:16.687Z</time>
      </trkpt>
      <trkpt lat="44.65195" lon="-0.89562">
        <ele>31.1</ele>
        <time>2021-06-01T10:00:21.248Z</time>
      </trkpt>
      <trkpt lat="44.65213" lon="-0.89549">
        <ele>31</ele>
        <time>2021-06-01T10:00:26.417Z</time>
      </trkpt>
      <trkpt lat="44.65224" lon="-0.89521">
        <ele>30.7</ele>
        <time>2021-06-01T10:00:30.368Z</time>
      </trkpt>
      <trkpt lat="44.65228" lon="-0.89496">
        <ele>30.5</ele>
        <time>2021-06-01T10:00:33.626Z</time>
      </trkpt>
      <trkpt lat="44.6524" lon="-0.89476">
        <ele>30</ele>
        <time>2021-06-01T10:00:36.378Z</time>
      </trkpt>
      <trkpt lat="44.65247" lon="-0.89449">
        <ele>29.5</ele>
        <time>2021-06-01T10:00:39.482Z</time>
      </trkpt>
      <trkpt lat="44.65266" lon="-0.89445">
        <ele>28.8</ele>
        <time>2021-06-01T10:00:42.055Z</time>
      </trkpt>
      <trkpt lat="44.65272" lon="-0.8942">
        <ele>28.2</ele>
        <time>2021-06-01T10:00:44.685Z</time>
      </trkpt>
      <trkpt lat="44.65278" lon="-0.89395">
        <ele>28.2</ele>
        <time>2021-06-01T10:00:49.842Z</time>
      </trkpt>
      <trkpt lat="44.65287" lon="-0.89371">
        <ele>28.2</ele>
        <time>2021-06-01T10:00:55.144Z</time>
      </trkpt>
      <trkpt lat="44.65303" lon="-0.89363">
        <ele>27.9</ele>
        <time>2021-06-01T10:00:57.934Z</time>
      </trkpt>
      <trkpt lat="44.65314" lon="-0.89339">
        <ele>28.1</ele>
        <time>2021-06-01T10:01:04.067Z</time>
      </trkpt>
      <trkpt lat="44.65321" lon="-0.89315">
        <ele>28.3</ele>
        <time>2021-06-01T10:01:09.696Z</time>
      </trkpt>
      <trkpt lat="44.6534" lon="-0.89308">
        <ele>28.5</ele>
        <time>2021-06-01T10:01:15.647Z</time>
      </trkpt>
      <trkpt lat="44.65357" lon="-0.89295">
        <ele>29.3</ele>
        <time>2021-06-01T10:01:24.205Z</time>
      </trkpt>
      <trkpt lat="44.65375" lon="-0.89286">
        <ele>30.1</ele>
        <time>2021-06-01T10:01:32.720Z</time>
      </trkpt>
      <trkpt lat="44.65393" lon="-0.89294">
        <ele>30.6</ele>
        <time>2021-06-01T10:01:39.568Z</time>
      </trkpt>
      <trkpt lat="44.65413" lon="-0.893">
        <ele>31.3</ele>
        <time>2021-06-01T10:01:47.753Z</time>
      </trkpt>
      <trkpt lat="44.65429" lon="-0.89287">
        <ele>32.6</ele>
        <time>2021-06-01T10:01:57.996Z</time>
      </trkpt>
      <trkpt lat="44.65443" lon="-0.8927">
        <ele>33.9</ele>
        <time>2021-06-01T10:02:08.245Z</time>
      </trkpt>
      <trkpt lat="44.65461" lon="-0.89257">
        <ele>35.2</ele>
        <time>2021-06-01T10:02:18.967Z</time>
      </trkpt>
      <trkpt lat="44.65477" lon="-0.89244">
        <ele>36.2</ele>
        <time>2021-06-01T10:02:28.091Z</time>
      </trkpt>
      <trkpt lat="44.65485" lon="-0.8922">
        <ele>35.9</ele>
        <time>2021-06-01T10:02:31.255Z</time>
      </trkpt>
      <trkpt lat="44.65491" lon="-0.89192">
        <ele>35</ele>
        <time>2021-06-01T10:02:33.866Z</time>
      </trkpt>
      <trkpt lat="44.65503" lon="-0.89172">
        <ele>34.3</ele>
        <time>2021-06-01T10:02:36.331Z</time>
      </trkpt>
      <trkpt lat="44.65518" lon="-0.89148">
        <ele>33.9</ele>
        <time>2021-06-01T10:02:40.067Z</time>
      </trkpt>
      <trkpt lat="44.65529" lon="-0.89127">
        <ele>33.7</ele>
        <time>2021-06-01T10:02:43.390Z</time>
      </trkpt>
      <trkpt lat="44.65534" lon="-0.89102">
        <ele>33.3</ele>
        <time>2021-06-01T10:02:46.286Z</time>
      </trkpt>
      <trkpt lat="44.65532" lon="-0.89074">
        <ele>33.1</ele>
        <time>2021-06-01T10:02:49.909Z</time>
      </trkpt>
      <trkpt lat="44.65535" lon="-0.89046">
        <ele>33.4</ele>
        <time>2021-06-01T10:02:56.318Z</time>
      </trkpt>
      <trkpt lat="44.65547" lon="-0.89024">
        <ele>33.7</ele>
        <time>2021-06-01T10:03:02.613Z</time>
      </trkpt>
      <trkpt lat="44.65556" lon="-0.88998">
        <ele>34</ele>
        <time>2021-06-01T10:03:09.136Z</time>
      </trkpt>
      <trkpt lat="44.65567" lon="-0.88974">
        <ele>34</ele>
        <time>2021-06-01T10:03:14.716Z</time>
      </trkpt>
      <trkpt lat="44.65582" lon="-0.88957">
        <ele>33.5</ele>
        <time>2021-06-01T10:03:17.593Z</time>
      </trkpt>
      <trkpt lat="44.65592" lon="-0.88936">
        <ele>33.4</ele>
        <time>2021-06-01T10:03:22.144Z</time>
      </trkpt>
      <trkpt lat="44.65608" lon="-0.88919">
        <ele>33.6</ele>
        <time>2021-06-01T10:03:28.208Z</time>
      </trkpt>
      <trkpt lat="44.65625" lon="-0.88906">
        <ele>34.1</ele>
        <time>2021-06-01T10:03:35.174Z</time>
      </trkpt>
      <trkpt lat="44.65642" lon="-0.88896">
        <ele>34.3</ele>
        <time>2021-06-01T10:03:40.796Z</time>
      </trkpt>
      <trkpt lat="44.65657" lon="-0.88883">
        <ele>34.2</ele>
        <time>2021-06-01T10:03:45.250Z</time>
      </trkpt>
      <trkpt lat="44.65678" lon="-0.88874">
        <ele>34.1</ele>
        <time>2021-06-01T10:03:50.888Z</time>
      </trkpt>
      <trkpt lat="44.65697" lon="-0.88863">
        <ele>34.2</ele>
        <time>2021-06-01T10:03:56.797Z</time>
      </trkpt>
      <trkpt lat="44.65708" lon="-0.88841">
        <ele>34.1</ele>
        <time>2021-06-01T10:04:01.663Z</time>
      </trkpt>
      <trkpt lat="44.65717" lon="-0.88818">
        <ele>34</ele>
        <time>2021-06-01T10:04:06.404Z</time>
      </trkpt>
      <trkpt lat="44.65732" lon="-0.88789">
        <ele>33.5</ele>
        <time>2021-06-01T10:04:10.498Z</time>
      </trkpt>
      <trkpt lat="44.65744" lon="-0.88768">
        <ele>32.8</ele>
        <time>2021-06-01T10:04:13.062Z</time>
      </trkpt>
      <trkpt lat="44.65759" lon="-0.88751">
        <ele>32.2</ele>
        <time>2021-06-01T10:04:15.785Z</time>
      </trkpt>
      <trkpt lat="44.65775" lon="-0.88737">
        <ele>32.8</ele>
        <time>2021-06-01T10:04:23.095Z</time>
      </trkpt>
      <trkpt lat="44.65795" lon="-0.88738">
        <ele>33.1</ele>
        <time>2021-06-01T10:04:29.468Z</time>
      </trkpt>
      <trkpt lat="44.65813" lon="-0.88737">
        <ele>33.5</ele>
        <time>2021-06-01T10:04:35.681Z</time>
      </trkpt>
      <trkpt lat="44.65834" lon="-0.88731">
        <ele>33.8</ele>
        <time>2021-06-01T10:04:42.435Z</time>
      </trkpt>
      <trkpt lat="44.65853" lon="-0.88737">
        <ele>34.4</ele>
        <time>2021-06-01T10:04:49.889Z</time>
      </trkpt>
      <trkpt lat="44.65882" lon="-0.88724">
        <ele>35</ele>
        <time>2021-06-01T10:05:00.094Z</time>
      </trkpt>
      <trkpt lat="44.659" lon="-0.88719">
        <ele>35.5</ele>
        <time>2021-06-01T10:05:06.812Z</time>
      </trkpt>
      <trkpt lat="44.65922" lon="-0.8871">
        <ele>36.2</ele>
        <time>2021-06-01T10:05:15.554Z</time>
      </trkpt>
      <trkpt lat="44.65941" lon="-0.88704">
        <ele>36.9</ele>
        <time>2021-06-01T10:05:23.530Z</time>
      </trkpt>
      <trkpt lat="44.65959" lon="-0.88698">
        <ele>37.5</ele>
        <time>2021-06-01T10:05:30.761Z</time>
      </trkpt>
      <trkpt lat="44.65977" lon="-0.88685">
        <ele>38.2</ele>
        <time>2021-06-01T10:05:38.900Z</time>
      </trkpt>
      <trkpt lat="44.65994" lon="-0.88678">
        <ele>38.8</ele>
        <time>2021-06-01T10:05:45.956Z</time>
      </trkpt>
      <trkpt lat="44.66013" lon="-0.88679">
        <ele>38.6</ele>
        <time>2021-06-01T10:05:49.373Z</time>
      </trkpt>
      <trkpt lat="44.66035" lon="-0.8867">
        <ele>37.8</ele>
        <time>2021-06-01T10:05:52.489Z</time>
      </trkpt>
      <trkpt lat="44.66057" lon="-0.88661">
        <ele>36.8</ele>
        <time>2021-06-01T10:05:55.355Z</time>
      </trkpt>
      <trkpt lat="44.66075" lon="-0.88654">
        <ele>35.9</ele>
        <time>2021-06-01T10:05:57.598Z</time>
      </trkpt>
      <trkpt lat="44.66097" lon="-0.88649">
        <ele>35.5</ele>
        <time>2021-06-01T10:06:01.246Z</time>
      </trkpt>
      <trkpt lat="44.66115" lon="-0.88639">
        <ele>35.4</ele>
        <time>2021-06-01T10:06:06.174Z</time>
      </trkpt>
      <trkpt lat="44.66137" lon="-0.88632">
        <ele>35.4</ele>
        <time>2021-06-01T10:06:12.371Z</time>
      </trkpt>
      <trkpt lat="44.66158" lon="-0.88627">
        <ele>35.5</ele>
        <time>2021-06-01T10:06:18.486Z</time>
      </trkpt>
      <trkpt lat="44.66176" lon="-0.8862">
        <ele>35.5</ele>
        <time>2021-06-01T10:06:23.617Z</time>
      </trkpt>
      <trkpt lat="44.66195" lon="-0.88617">
        <ele>35.8</ele>
        <time>2021-06-01T10:06:29.752Z</time>
      </trkpt>
      <trkpt lat="44.66212" lon="-0.88635">
        <ele>36.6</ele>
        <time>2021-06-01T10:06:38.669Z</time>
      </trkpt>
      <trkpt lat="44.66231" lon="-0.88652">
        <ele>37.4</ele>
        <time>2021-06-01T10:06:47.841Z</time>
      </trkpt>
      <trkpt lat="44.66252" lon="-0.88669">
        <ele>38</ele>
        <time>2021-06-01T10:06:56.452Z</time>
      </trkpt>
      <trkpt lat="44.6627" lon="-0.88687">
        <ele>37.7</ele>
        <time>2021-06-01T10:07:00.268Z</time>
      </trkpt>
      <trkpt lat="44.66286" lon="-0.88704">
        <ele>37.7</ele>
        <time>2021-06-01T10:07:05.778Z</time>
      </trkpt>
      <trkpt lat="44.66306" lon="-0.88723">
        <ele>38</ele>
        <time>2021-06-01T10:07:13.262Z</time>
      </trkpt>
      <trkpt lat="44.66324" lon="-0.88739">
        <ele>38.5</ele>
        <time>2021-06-01T10:07:20.716Z</time>
      </trkpt>
      <trkpt lat="44.66339" lon="-0.88754">
        <ele>38.9</ele>
        <time>2021-06-01T10:07:27.030Z</time>
      </trkpt>
      <trkpt lat="44.66353" lon="-0.88778">
        <ele>39.1</ele>
        <time>2021-06-01T10:07:33.645Z</time>
      </trkpt>
      <trkpt lat="44.6637" lon="-0.88787">
        <ele>38.8</ele>
        <time>2021-06-01T10:07:36.670Z</time>
      </trkpt>
      <trkpt lat="44.66388" lon="-0.88797">
        <ele>38.4</ele>
        <time>2021-06-01T10:07:39.739Z</time>
      </trkpt>
      <trkpt lat="44.66406" lon="-0.88788">
        <ele>37.3</ele>
        <time>2021-06-01T10:07:41.857Z</time>
      </trkpt>
      <trkpt lat="44.66428" lon="-0.8878">
        <ele>36.6</ele>
        <time>2021-06-01T10:07:45.080Z</time>
      </trkpt>
      <trkpt lat="44.66446" lon="-0.88772">
        <ele>36.6</ele>
        <time>2021-06-01T10:07:50.266Z</time>
      </trkpt>
      <trkpt lat="44.66461" lon="-0.88755">
        <ele>36.2</ele>
        <time>2021-06-01T10:07:53.317Z</time>
      </trkpt>
      <trkpt lat="44.66477" lon="-0.8874">
        <ele>36.3</ele>
        <time>2021-06-01T10:07:58.865Z</time>
      </trkpt>
      <trkpt lat="44.66495" lon="-0.8874">
        <ele>36.7</ele>
        <time>2021-06-01T10:08:05.074Z</time>
      </trkpt>
      <trkpt lat="44.6652" lon="-0.88742">
        <ele>37.1</ele>
        <time>2021-06-01T10:08:13.133Z</time>
      </trkpt>
      <trkpt lat="44.6654" lon="-0.88738">
        <ele>37.3</ele>
        <time>2021-06-01T10:08:19.237Z</time>
      </trkpt>
      <trkpt lat="44.66568" lon="-0.8873">
        <ele>37.5</ele>
        <time>2021-06-01T10:08:27.625Z</time>
      </trkpt>
      <trkpt lat="44.66587" lon="-0.88731">
        <ele>37.8</ele>
        <time>2021-06-01T10:08:33.732Z</time>
      </trkpt>
      <trkpt lat="44.6661" lon="-0.88725">
        <ele>38</ele>
        <time>2021-06-01T10:08:40.705Z</time>
      </trkpt>
      <trkpt lat="44.66625" lon="-0.8871">
        <ele>38</ele>
        <time>2021-06-01T10:08:45.762Z</time>
      </trkpt>
      <trkpt lat="44.66641" lon="-0.88692">
        <ele>38</ele>
        <time>2021-06-01T10:08:51.392Z</time>
      </trkpt>
      <trkpt lat="44.66662" lon="-0.88674">
        <ele>38</ele>
        <time>2021-06-01T10:08:58.149Z</time>
      </trkpt>
      <trkpt lat="44.6668" lon="-0.88664">
        <ele>38.8</ele>
        <time>2021-06-01T10:09:06.707Z</time>
      </trkpt>
      <trkpt lat="44.66691" lon="-0.88643">
        <ele>39.3</ele>
        <time>2021-06-01T10:09:13.474Z</time>
      </trkpt>
      <trkpt lat="44.66695" lon="-0.88616">
        <ele>39.3</ele>
        <time>2021-06-01T10:09:18.863Z</time>
      </trkpt>
      <trkpt lat="44.66683" lon="-0.88596">
        <ele>38.6</ele>
        <time>2021-06-01T10:09:21.327Z</time>
      </trkpt>
      <trkpt lat="44.66676" lon="-0.88571">
        <ele>38.7</ele>
        <time>2021-06-01T10:09:26.841Z</time>
      </trkpt>
      <trkpt lat="44.66662" lon="-0.88554">
        <ele>38.9</ele>
        <time>2021-06-01T10:09:32.482Z</time>
      </trkpt>
      <trkpt lat="44.66671" lon="-0.88529">
        <ele>40</ele>
        <time>2021-06-01T10:09:42.394Z</time>
      </trkpt>
      <trkpt lat="44.66691" lon="-0.88521">
        <ele>40.7</ele>
        <time>2021-06-01T10:09:50.654Z</time>
      </trkpt>
      <trkpt lat="44.66711" lon="-0.88518">
        <ele>41.1</ele>
        <time>2021-06-01T10:09:57.411Z</time>
      </trkpt>
      <trkpt lat="44.66729" lon="-0.88511">
        <ele>41.5</ele>
        <time>2021-06-01T10:10:03.794Z</time>
      </trkpt>
      <trkpt lat="44.66746" lon="-0.88503">
        <ele>41.9</ele>
        <time>2021-06-01T10:10:09.985Z</time>
      </trkpt>
      <trkpt lat="44.66757" lon="-0.88481">
        <ele>42.8</ele>
        <time>2021-06-01T10:10:18.999Z</time>
      </trkpt>
      <trkpt lat="44.66774" lon="-0.88469">
        <ele>43.4</ele>
        <time>2021-06-01T10:10:26.349Z</time>
      </trkpt>
      <trkpt lat="44.6679" lon="-0.88452">
        <ele>44.2</ele>
        <time>2021-06-01T10:10:35.031Z</time>
      </trkpt>
      <trkpt lat="44.66809" lon="-0.88439">
        <ele>44.9</ele>
        <time>2021-06-01T10:10:43.366Z</time>
      </trkpt>
      <trkpt lat="44.66826" lon="-0.88429">
        <ele>45.5</ele>
        <time>2021-06-01T10:10:50.581Z</time>
      </trkpt>
      <trkpt lat="44.66843" lon="-0.88417">
        <ele>45.6</ele>
        <time>2021-06-01T10:10:56.071Z</time>
      </trkpt>
      <trkpt lat="44.66862" lon="-0.88407">
        <ele>45</ele>
        <time>2021-06-01T10:10:58.985Z</time>
      </trkpt>
      <trkpt lat="44.66881" lon="-0.88413">
        <ele>44.3</ele>
        <time>2021-06-01T10:11:01.606Z</time>
      </trkpt>
      <trkpt lat="44.669" lon="-0.88405">
        <ele>43.5</ele>
        <time>2021-06-01T10:11:04.165Z</time>
      </trkpt>
      <trkpt lat="44.66914" lon="-0.88385">
        <ele>42.7</ele>
        <time>2021-06-01T10:11:06.746Z</time>
      </trkpt>
      <trkpt lat="44.66933" lon="-0.88381">
        <ele>42.4</ele>
        <time>2021-06-01T10:11:09.982Z</time>
      </trkpt>
      <trkpt lat="44.66948" lon="-0.88366">
        <ele>41.9</ele>
        <time>2021-06-01T10:11:12.694Z</time>
      </trkpt>
      <trkpt lat="44.6696" lon="-0.88347">
        <ele>40.9</ele>
        <time>2021-06-01T10:11:14.736Z</time>
      </trkpt>
      <trkpt lat="44.66969" lon="-0.88323">
        <ele>40.2</ele>
        <time>2021-06-01T10:11:17.325Z</time>
      </trkpt>
      <trkpt lat="44.66985" lon="-0.88307">
        <ele>39.7</ele>
        <time>2021-06-01T10:11:20.272Z</time>
      </trkpt>
      <trkpt lat="44.66988" lon="-0.88282">
        <ele>39.6</ele>
        <time>2021-06-01T10:11:24.838Z</time>
      </trkpt>
      <trkpt lat="44.66996" lon="-0.88256">
        <ele>39.2</ele>
        <time>2021-06-01T10:11:28.063Z</time>
      </trkpt>
      <trkpt lat="44.67008" lon="-0.88235">
        <ele>39.1</ele>
        <time>2021-06-01T10:11:32.937Z</time>
      </trkpt>
      <trkpt lat="44.67015" lon="-0.8821">
        <ele>39.1</ele>
        <time>2021-06-01T10:11:38.186Z</time>
      </trkpt>
      <trkpt lat="44.67029" lon="-0.8819">
        <ele>39.1</ele>
        <time>2021-06-01T10:11:43.670Z</time>
      </trkpt>
      <trkpt lat="44.67032" lon="-0.88165">
        <ele>39</ele>
        <time>2021-06-01T10:11:48.235Z</time>
      </trkpt>
      <trkpt lat="44.67047" lon="-0.88148">
        <ele>38.7</ele>
        <time>2021-06-01T10:11:51.482Z</time>
      </trkpt>
      <trkpt lat="44.67048" lon="-0.8812">
        <ele>38.4</ele>
        <time>2021-06-01T10:11:54.864Z</time>
      </trkpt>
      <trkpt lat="44.67032" lon="-0.88106">
        <ele>38.4</ele>
        <time>2021-06-01T10:12:00.042Z</time>
      </trkpt>
      <trkpt lat="44.67016" lon="-0.88094">
        <ele>38.7</ele>
        <time>2021-06-01T10:12:05.914Z</time>
      </trkpt>
      <trkpt lat="44.67001" lon="-0.88076">
        <ele>39.3</ele>
        <time>2021-06-01T10:12:13.425Z</time>
      </trkpt>
      <trkpt lat="44.67017" lon="-0.88061">
        <ele>39.4</ele>
        <time>2021-06-01T10:12:18.973Z</time>
      </trkpt>
      <trkpt lat="44.67038" lon="-0.88052">
        <ele>38.9</ele>
        <time>2021-06-01T10:12:22.370Z</time>
      </trkpt>
      <trkpt lat="44.67049" lon="-0.88031">
        <ele>38.9</ele>
        <time>2021-06-01T10:12:27.466Z</time>
      </trkpt>
      <trkpt lat="44.67054" lon="-0.88002">
        <ele>39.1</ele>
        <time>2021-06-01T10:12:33.847Z</time>
      </trkpt>
      <trkpt lat="44.67059" lon="-0.87977">
        <ele>39.5</ele>
        <time>2021-06-01T10:12:40.177Z</time>
      </trkpt>
      <trkpt lat="44.67058" lon="-0.87946">
        <ele>40.5</ele>
        <time>2021-06-01T10:12:50.463Z</time>
      </trkpt>
      <trkpt lat="44.67066" lon="-0.87922">
        <ele>40.5</ele>
        <time>2021-06-01T10:12:55.642Z</time>
      </trkpt>
      <trkpt lat="44.67075" lon="-0.87899">
        <ele>40.2</ele>
        <time>2021-06-01T10:12:58.769Z</time>
      </trkpt>
      <trkpt lat="44.67078" lon="-0.87874">
        <ele>40.5</ele>
        <time>2021-06-01T10:13:04.614Z</time>
      </trkpt>
      <trkpt lat="44.67074" lon="-0.87847">
        <ele>41.6</ele>
        <time>2021-06-01T10:13:14.427Z</time>
      </trkpt>
      <trkpt lat="44.67076" lon="-0.87818">
        <ele>42.2</ele>
        <time>2021-06-01T10:13:22.175Z</time>
      </trkpt>
      <trkpt lat="44.67082" lon="-0.87793">
        <ele>42.5</ele>
        <time>2021-06-01T10:13:28.215Z</time>
      </trkpt>
      <trkpt lat="44.67094" lon="-0.87774">
        <ele>42.9</ele>
        <time>2021-06-01T10:13:34.443Z</time>
      </trkpt>
      <trkpt lat="44.67109" lon="-0.87757">
        <ele>43.2</ele>
        <time>2021-06-01T10:13:40.617Z</time>
      </trkpt>
      <trkpt lat="44.6712" lon="-0.87734">
        <ele>43.2</ele>
        <time>2021-06-01T10:13:46.032Z</time>
      </trkpt>
      <trkpt lat="44.67136" lon="-0.87719">
        <ele>42.9</ele>
        <time>2021-06-01T10:13:49.272Z</time>
      </trkpt>
      <trkpt lat="44.67154" lon="-0.87717">
        <ele>42.4</ele>
        <time>2021-06-01T10:13:51.918Z</time>
      </trkpt>
      <trkpt lat="44.67175" lon="-0.87726">
        <ele>42</ele>
        <time>2021-06-01T10:13:55.500Z</time>
      </trkpt>
      <trkpt lat="44.67193" lon="-0.87726">
        <ele>42</ele>
        <time>2021-06-01T10:14:00.446Z</time>
      </trkpt>
      <trkpt lat="44.67212" lon="-0.87719">
        <ele>42</ele>
        <time>2021-06-01T10:14:05.842Z</time>
      </trkpt>
      <trkpt lat="44.67228" lon="-0.87705">
        <ele>42</ele>
        <time>2021-06-01T10:14:11.020Z</time>
      </trkpt>
      <trkpt lat="44.67254" lon="-0.87697">
        <ele>42</ele>
        <time>2021-06-01T10:14:18.332Z</time>
      </trkpt>
      <trkpt lat="44.67275" lon="-0.87699">
        <ele>42.3</ele>
        <time>2021-06-01T10:14:24.983Z</time>
      </trkpt>
      <trkpt lat="44.67296" lon="-0.87693">
        <ele>42.6</ele>
        <time>2021-06-01T10:14:31.737Z</time>
      </trkpt>
      <trkpt lat="44.67315" lon="-0.87689">
        <ele>42.8</ele>
        <time>2021-06-01T10:14:37.572Z</time>
      </trkpt>
      <trkpt lat="44.67329" lon="-0.87667">
        <ele>42.9</ele>
        <time>2021-06-01T10:14:43.603Z</time>
      </trkpt>
      <trkpt lat="44.67352" lon="-0.87663">
        <ele>43.2</ele>
        <time>2021-06-01T10:14:50.827Z</time>
      </trkpt>
      <trkpt lat="44.67371" lon="-0.87646">
        <ele>43.3</ele>
        <time>2021-06-01T10:14:57.276Z</time>
      </trkpt>
      <trkpt lat="44.67377" lon="-0.87622">
        <ele>43.2</ele>
        <time>2021-06-01T10:15:01.859Z</time>
      </trkpt>
      <trkpt lat="44.67396" lon="-0.87612">
        <ele>43.3</ele>
        <time>2021-06-01T10:15:07.696Z</time>
      </trkpt>
      <trkpt lat="44.67412" lon="-0.87601">
        <ele>43.2</ele>
        <time>2021-06-01T10:15:12.202Z</time>
      </trkpt>
      <trkpt lat="44.6743" lon="-0.87589">
        <ele>42.9</ele>
        <time>2021-06-01T10:15:15.580Z</time>
      </trkpt>
      <trkpt lat="44.67447" lon="-0.87578">
        <ele>42.8</ele>
        <time>2021-06-01T10:15:20.333Z</time>
      </trkpt>
      <trkpt lat="44.67466" lon="-0.87573">
        <ele>42.7</ele>
        <time>2021-06-01T10:15:25.253Z</time>
      </trkpt>
      <trkpt lat="44.67481" lon="-0.87555">
        <ele>42.9</ele>
        <time>2021-06-01T10:15:31.226Z</time>
      </trkpt>
      <trkpt lat="44.6749" lon="-0.87532">
        <ele>43.4</ele>
        <time>2021-06-01T10:15:38.022Z</time>
      </trkpt>
      <trkpt lat="44.67506" lon="-0.87518">
        <ele>43.6</ele>
        <time>2021-06-01T10:15:43.757Z</time>
      </trkpt>
      <trkpt lat="44.67525" lon="-0.8751">
        <ele>43.8</ele>
        <time>2021-06-01T10:15:49.761Z</time>
      </trkpt>
      <trkpt lat="44.67536" lon="-0.87491">
        <ele>44.2</ele>
        <time>2021-06-01T10:15:55.823Z</time>
      </trkpt>
      <trkpt lat="44.67549" lon="-0.8747">
        <ele>44.4</ele>
        <time>2021-06-01T10:16:01.817Z</time>
      </trkpt>
      <trkpt lat="44.67563" lon="-0.87452">
        <ele>44.4</ele>
        <time>2021-06-01T10:16:07.029Z</time>
      </trkpt>
      <trkpt lat="44.67575" lon="-0.87433">
        <ele>44.2</ele>
        <time>2021-06-01T10:16:10.254Z</time>
      </trkpt>
      <trkpt lat="44.67596" lon="-0.87427">
        <ele>43.9</ele>
        <time>2021-06-01T10:16:13.937Z</time>
      </trkpt>
      <trkpt lat="44.67613" lon="-0.87394">
        <ele>44</ele>
        <time>2021-06-01T10:16:22.158Z</time>
      </trkpt>
      <trkpt lat="44.67625" lon="-0.87372">
        <ele>44</ele>
        <time>2021-06-01T10:16:27.575Z</time>
      </trkpt>
      <trkpt lat="44.67628" lon="-0.87346">
        <ele>44.3</ele>
        <time>2021-06-01T10:16:33.606Z</time>
      </trkpt>
      <trkpt lat="44.67631" lon="-0.8732">
        <ele>44.6</ele>
        <time>2021-06-01T10:16:39.637Z</time>
      </trkpt>
      <trkpt lat="44.67635" lon="-0.87292">
        <ele>45.1</ele>
        <time>2021-06-01T10:16:46.841Z</time>
      </trkpt>
      <trkpt lat="44.67643" lon="-0.87268">
        <ele>45.5</ele>
        <time>2021-06-01T10:16:53.269Z</time>
      </trkpt>
      <trkpt lat="44.67663" lon="-0.87266">
        <ele>45.4</ele>
        <time>2021-06-01T10:16:58.387Z</time>
      </trkpt>
      <trkpt lat="44.67682" lon="-0.87265">
        <ele>46</ele>
        <time>2021-06-01T10:17:05.734Z</time>
      </trkpt>
      <trkpt lat="44.677" lon="-0.8726">
        <ele>46.8</ele>
        <time>2021-06-01T10:17:14.127Z</time>
      </trkpt>
      <trkpt lat="44.67716" lon="-0.87244">
        <ele>47.9</ele>
        <time>2021-06-01T10:17:23.947Z</time>
      </trkpt>
      <trkpt lat="44.67735" lon="-0.8724">
        <ele>48.7</ele>
        <time>2021-06-01T10:17:32.480Z</time>
      </trkpt>
      <trkpt lat="44.67754" lon="-0.87237">
        <ele>49.2</ele>
        <time>2021-06-01T10:17:39.388Z</time>
      </trkpt>
      <trkpt lat="44.67774" lon="-0.87242">
        <ele>48.6</ele>
        <time>2021-06-01T10:17:42.307Z</time>
      </trkpt>
      <trkpt lat="44.67788" lon="-0.87226">
        <ele>48.7</ele>
        <time>2021-06-01T10:17:47.529Z</time>
      </trkpt>
      <trkpt lat="44.67805" lon="-0.87212">
        <ele>48.6</ele>
        <time>2021-06-01T10:17:52.551Z</time>
      </trkpt>
      <trkpt lat="44.67824" lon="-0.87214">
        <ele>48.1</ele>
        <time>2021-06-01T10:17:55.387Z</time>
      </trkpt>
      <trkpt lat="44.67843" lon="-0.87211">
        <ele>47.9</ele>
        <time>2021-06-01T10:17:58.827Z</time>
      </trkpt>
      <trkpt lat="44.67861" lon="-0.87196">
        <ele>48.3</ele>
        <time>2021-06-01T10:18:05.795Z</time>
      </trkpt>
      <trkpt lat="44.67878" lon="-0.87188">
        <ele>48.5</ele>
        <time>2021-06-01T10:18:11.281Z</time>
      </trkpt>
      <trkpt lat="44.67884" lon="-0.87162">
        <ele>49.2</ele>
        <time>2021-06-01T10:18:19.250Z</time>
      </trkpt>
      <trkpt lat="44.67891" lon="-0.87135">
        <ele>50.1</ele>
        <time>2021-06-01T10:18:28.661Z</time>
      </trkpt>
      <trkpt lat="44.679" lon="-0.87112">
        <ele>51</ele>
        <time>2021-06-01T10:18:37.525Z</time>
      </trkpt>
      <trkpt lat="44.67909" lon="-0.87085">
        <ele>51.9</ele>
        <time>2021-06-01T10:18:47.057Z</time>
      </trkpt>
      <trkpt lat="44.67921" lon="-0.87064">
        <ele>51.7</ele>
        <time>2021-06-01T10:18:50.504Z</time>
      </trkpt>
      <trkpt lat="44.67941" lon="-0.87058">
        <ele>51.4</ele>
        <time>2021-06-01T10:18:53.989Z</time>
      </trkpt>
      <trkpt lat="44.6795" lon="-0.87035">
        <ele>51</ele>
        <time>2021-06-01T10:18:56.922Z</time>
      </trkpt>
      <trkpt lat="44.67953" lon="-0.87009">
        <ele>50.7</ele>
        <time>2021-06-01T10:19:00.061Z</time>
      </trkpt>
      <trkpt lat="44.67953" lon="-0.86983">
        <ele>49.8</ele>
        <time>2021-06-01T10:19:02.272Z</time>
      </trkpt>
      <trkpt lat="44.67962" lon="-0.86959">
        <ele>48.8</ele>
        <time>2021-06-01T10:19:04.516Z</time>
      </trkpt>
      <trkpt lat="44.67968" lon="-0.86933">
        <ele>47.7</ele>
        <time>2021-06-01T10:19:06.689Z</time>
      </trkpt>
      <trkpt lat="44.67982" lon="-0.86913">
        <ele>47</ele>
        <time>2021-06-01T10:19:09.398Z</time>
      </trkpt>
      <trkpt lat="44.67994" lon="-0.86889">
        <ele>47</ele>
        <time>2021-06-01T10:19:15.130Z</time>
      </trkpt>
      <trkpt lat="44.68014" lon="-0.86885">
        <ele>47.2</ele>
        <time>2021-06-01T10:19:21.234Z</time>
      </trkpt>
      <trkpt lat="44.68031" lon="-0.86877">
        <ele>47.5</ele>
        <time>2021-06-01T10:19:27.051Z</time>
      </trkpt>
      <trkpt lat="44.68039" lon="-0.86853">
        <ele>47.8</ele>
        <time>2021-06-01T10:19:33.113Z</time>
      </trkpt>
      <trkpt lat="44.68055" lon="-0.86837">
        <ele>48.3</ele>
        <time>2021-06-01T10:19:40.148Z</time>
      </trkpt>
      <trkpt lat="44.68064" lon="-0.86815">
        <ele>48.7</ele>
        <time>2021-06-01T10:19:46.369Z</time>
      </trkpt>
      <trkpt lat="44.6808" lon="-0.86799">
        <ele>49.3</ele>
        <time>2021-06-01T10:19:53.860Z</time>
      </trkpt>
      <trkpt lat="44.68098" lon="-0.86781">
        <ele>50</ele>
        <time>2021-06-01T10:20:02.411Z</time>
      </trkpt>
      <trkpt lat="44.68117" lon="-0.86774">
        <ele>50.6</ele>
        <time>2021-06-01T10:20:09.904Z</time>
      </trkpt>
      <trkpt lat="44.68123" lon="-0.8675">
        <ele>51</ele>
        <time>2021-06-01T10:20:16.136Z</time>
      </trkpt>
      <trkpt lat="44.68104" lon="-0.86746">
        <ele>50.4</ele>
        <time>2021-06-01T10:20:18.848Z</time>
      </trkpt>
      <trkpt lat="44.68092" lon="-0.86726">
        <ele>49.9</ele>
        <time>2021-06-01T10:20:21.599Z</time>
      </trkpt>
      <trkpt lat="44.68092" lon="-0.867">
        <ele>49.6</ele>
        <time>2021-06-01T10:20:24.690Z</time>
      </trkpt>
      <trkpt lat="44.68088" lon="-0.86671">
        <ele>49.2</ele>
        <time>2021-06-01T10:20:28.084Z</time>
      </trkpt>
      <trkpt lat="44.6808" lon="-0.86645">
        <ele>49</ele>
        <time>2021-06-01T10:20:31.733Z</time>
      </trkpt>
      <trkpt lat="44.68066" lon="-0.86623">
        <ele>49</ele>
        <time>2021-06-01T10:20:37.501Z</time>
      </trkpt>
      <trkpt lat="44.6805" lon="-0.86606">
        <ele>49.2</ele>
        <time>2021-06-01T10:20:43.564Z</time>
      </trkpt>
      <trkpt lat="44.68033" lon="-0.86593">
        <ele>49.5</ele>
        <time>2021-06-01T10:20:49.761Z</time>
      </trkpt>
      <trkpt lat="44.68011" lon="-0.8657">
        <ele>50.2</ele>
        <time>2021-06-01T10:20:59.592Z</time>
      </trkpt>
      <trkpt lat="44.67997" lon="-0.86551">
        <ele>50.8</ele>
        <time>2021-06-01T10:21:07.041Z</time>
      </trkpt>
      <trkpt lat="44.67984" lon="-0.86574">
        <ele>50.4</ele>
        <time>2021-06-01T10:21:10.413Z</time>
      </trkpt>
      <trkpt lat="44.6797" lon="-0.86596">
        <ele>50.1</ele>
        <time>2021-06-01T10:21:14.008Z</time>
      </trkpt>
      <trkpt lat="44.67952" lon="-0.86615">
        <ele>49.8</ele>
        <time>2021-06-01T10:21:17.909Z</time>
      </trkpt>
      <trkpt lat="44.67936" lon="-0.86633">
        <ele>49.6</ele>
        <time>2021-06-01T10:21:21.629Z</time>
      </trkpt>
      <trkpt lat="44.67921" lon="-0.86654">
        <ele>49.3</ele>
        <time>2021-06-01T10:21:25.259Z</time>
      </trkpt>
      <trkpt lat="44.67908" lon="-0.86673">
        <ele>48.8</ele>
        <time>2021-06-01T10:21:28.037Z</time>
      </trkpt>
      <trkpt lat="44.67891" lon="-0.86696">
        <ele>48.3</ele>
        <time>2021-06-01T10:21:31.754Z</time>
      </trkpt>
      <trkpt lat="44.67875" lon="-0.8672">
        <ele>47.7</ele>
        <time>2021-06-01T10:21:35.259Z</time>
      </trkpt>
      <trkpt lat="44.67864" lon="-0.86742">
        <ele>47.2</ele>
        <time>2021-06-01T10:21:38.109Z</time>
      </trkpt>
      <trkpt lat="44.67851" lon="-0.86769">
        <ele>46.8</ele>
        <time>2021-06-01T10:21:41.937Z</time>
      </trkpt>
      <trkpt lat="44.67835" lon="-0.8679">
        <ele>46.5</ele>
        <time>2021-06-01T10:21:45.712Z</time>
      </trkpt>
      <trkpt lat="44.6782" lon="-0.86809">
        <ele>46.7</ele>
        <time>2021-06-01T10:21:51.812Z</time>
      </trkpt>
      <trkpt lat="44.67807" lon="-0.86828">
        <ele>47</ele>
        <time>2021-06-01T10:21:57.848Z</time>
      </trkpt>
      <trkpt lat="44.67795" lon="-0.86848">
        <ele>47.7</ele>
        <time>2021-06-01T10:22:05.648Z</time>
      </trkpt>
      <trkpt lat="44.67783" lon="-0.86874">
        <ele>48.8</ele>
        <time>2021-06-01T10:22:16.230Z</time>
      </trkpt>
      <trkpt lat="44.67767" lon="-0.86893">
        <ele>49.8</ele>
        <time>2021-06-01T10:22:26.145Z</time>
      </trkpt>
      <trkpt lat="44.67748" lon="-0.86901">
        <ele>50.6</ele>
        <time>2021-06-01T10:22:34.787Z</time>
      </trkpt>
      <trkpt lat="44.67733" lon="-0.86919">
        <ele>50.8</ele>
        <time>2021-06-01T10:22:40.759Z</time>
      </trkpt>
      <trkpt lat="44.67719" lon="-0.86946">
        <ele>50.3</ele>
        <time>2021-06-01T10:22:44.510Z</time>
      </trkpt>
      <trkpt lat="44.67703" lon="-0.86969">
        <ele>49.8</ele>
        <time>2021-06-01T10:22:48.088Z</time>
      </trkpt>
      <trkpt lat="44.67684" lon="-0.86984">
        <ele>49.4</ele>
        <time>2021-06-01T10:22:51.637Z</time>
      </trkpt>
      <trkpt lat="44.67664" lon="-0.86996">
        <ele>49</ele>
        <time>2021-06-01T10:22:55.178Z</time>
      </trkpt>
      <trkpt lat="44.6765" lon="-0.87017">
        <ele>48.2</ele>
        <time>2021-06-01T10:22:57.850Z</time>
      </trkpt>
      <trkpt lat="44.67642" lon="-0.87045">
        <ele>47.4</ele>
        <time>2021-06-01T10:23:00.701Z</time>
      </trkpt>
      <trkpt lat="44.67634" lon="-0.87075">
        <ele>46.6</ele>
        <time>2021-06-01T10:23:03.793Z</time>
      </trkpt>
      <trkpt lat="44.67633" lon="-0.87102">
        <ele>46.5</ele>
        <time>2021-06-01T10:23:08.685Z</time>
      </trkpt>
      <trkpt lat="44.67628" lon="-0.87126">
        <ele>46.4</ele>
        <time>2021-06-01T10:23:13.184Z</time>
      </trkpt>
      <trkpt lat="44.67625" lon="-0.87155">
        <ele>46.4</ele>
        <time>2021-06-01T10:23:18.909Z</time>
      </trkpt>
      <trkpt lat="44.67617" lon="-0.87181">
        <ele>46.2</ele>
        <time>2021-06-01T10:23:22.559Z</time>
      </trkpt>
      <trkpt lat="44.67611" lon="-0.87206">
        <ele>46</ele>
        <time>2021-06-01T10:23:25.925Z</time>
      </trkpt>
      <trkpt lat="44.676" lon="-0.87237">
        <ele>45.9</ele>
        <time>2021-06-01T10:23:32.298Z</time>
      </trkpt>
      <trkpt lat="44.67596" lon="-0.87263">
        <ele>45.9</ele>
        <time>2021-06-01T10:23:37.495Z</time>
      </trkpt>
      <trkpt lat="44.67598" lon="-0.87293">
        <ele>45.7</ele>
        <time>2021-06-01T10:23:41.408Z</time>
      </trkpt>
      <trkpt lat="44.67605" lon="-0.87318">
        <ele>45.4</ele>
        <time>2021-06-01T10:23:44.622Z</time>
      </trkpt>
      <trkpt lat="44.67618" lon="-0.87344">
        <ele>44.6</ele>
        <time>2021-06-01T10:23:47.681Z</time>
      </trkpt>
      <trkpt lat="44.6761" lon="-0.87367">
        <ele>44.5</ele>
        <time>2021-06-01T10:23:52.295Z</time>
      </trkpt>
      <trkpt lat="44.67593" lon="-0.87378">
        <ele>44.7</ele>
        <time>2021-06-01T10:23:57.994Z</time>
      </trkpt>
      <trkpt lat="44.67582" lon="-0.87399">
        <ele>44.5</ele>
        <time>2021-06-01T10:24:01.317Z</time>
      </trkpt>
      <trkpt lat="44.67568" lon="-0.87416">
        <ele>44.6</ele>
        <time>2021-06-01T10:24:06.663Z</time>
      </trkpt>
      <trkpt lat="44.67552" lon="-0.87429">
        <ele>45</ele>
        <time>2021-06-01T10:24:12.996Z</time>
      </trkpt>
      <trkpt lat="44.67537" lon="-0.87449">
        <ele>45</ele>
        <time>2021-06-01T10:24:18.675Z</time>
      </trkpt>
      <trkpt lat="44.67526" lon="-0.87471">
        <ele>44.7</ele>
        <time>2021-06-01T10:24:21.893Z</time>
      </trkpt>
      <trkpt lat="44.67508" lon="-0.87486">
        <ele>44.5</ele>
        <time>2021-06-01T10:24:25.703Z</time>
      </trkpt>
      <trkpt lat="44.67486" lon="-0.87488">
        <ele>44.5</ele>
        <time>2021-06-01T10:24:31.760Z</time>
      </trkpt>
      <trkpt lat="44.67479" lon="-0.87463">
        <ele>45.2</ele>
        <time>2021-06-01T10:24:39.661Z</time>
      </trkpt>
      <trkpt lat="44.67464" lon="-0.87444">
        <ele>45.6</ele>
        <time>2021-06-01T10:24:46.437Z</time>
      </trkpt>
      <trkpt lat="44.67455" lon="-0.87419">
        <ele>45.9</ele>
        <time>2021-06-01T10:24:52.787Z</time>
      </trkpt>
      <trkpt lat="44.67463" lon="-0.87396">
        <ele>46</ele>
        <time>2021-06-01T10:24:58.055Z</time>
      </trkpt>
      <trkpt lat="44.67455" lon="-0.87369">
        <ele>45.6</ele>
        <time>2021-06-01T10:25:01.408Z</time>
      </trkpt>
      <trkpt lat="44.67445" lon="-0.87346">
        <ele>44.8</ele>
        <time>2021-06-01T10:25:03.849Z</time>
      </trkpt>
      <trkpt lat="44.67448" lon="-0.87316">
        <ele>44.6</ele>
        <time>2021-06-01T10:25:07.786Z</time>
      </trkpt>
      <trkpt lat="44.67433" lon="-0.87297">
        <ele>43.7</ele>
        <time>2021-06-01T10:25:10.290Z</time>
      </trkpt>
      <trkpt lat="44.67425" lon="-0.87271">
        <ele>43.3</ele>
        <time>2021-06-01T10:25:13.514Z</time>
      </trkpt>
      <trkpt lat="44.67435" lon="-0.87249">
        <ele>43.5</ele>
        <time>2021-06-01T10:25:19.174Z</time>
      </trkpt>
      <trkpt lat="44.67442" lon="-0.87223">
        <ele>43.9</ele>
        <time>2021-06-01T10:25:25.841Z</time>
      </trkpt>
      <trkpt lat="44.6745" lon="-0.872">
        <ele>44</ele>
        <time>2021-06-01T10:25:31.108Z</time>
      </trkpt>
      <trkpt lat="44.6746" lon="-0.8718">
        <ele>44</ele>
        <time>2021-06-01T10:25:35.885Z</time>
      </trkpt>
      <trkpt lat="44.67474" lon="-0.8717">
        <ele>43.7</ele>
        <time>2021-06-01T10:25:38.420Z</time>
      </trkpt>
      <trkpt lat="44.67484" lon="-0.87149">
        <ele>43.6</ele>
        <time>2021-06-01T10:25:42.970Z</time>
      </trkpt>
      <trkpt lat="44.67494" lon="-0.87125">
        <ele>43.6</ele>
        <time>2021-06-01T10:25:48.405Z</time>
      </trkpt>
      <trkpt lat="44.67511" lon="-0.87108">
        <ele>43.8</ele>
        <time>2021-06-01T10:25:54.688Z</time>
      </trkpt>
      <trkpt lat="44.67526" lon="-0.87091">
        <ele>44</ele>
        <time>2021-06-01T10:26:00.537Z</time>
      </trkpt>
      <trkpt lat="44.67543" lon="-0.87079">
        <ele>44.2</ele>
        <time>2021-06-01T10:26:06.320Z</time>
      </trkpt>
      <trkpt lat="44.67562" lon="-0.87066">
        <ele>44.5</ele>
        <time>2021-06-01T10:26:12.993Z</time>
      </trkpt>
      <trkpt lat="44.67571" lon="-0.87039">
        <ele>45.2</ele>
        <time>2021-06-01T10:26:21.345Z</time>
      </trkpt>
      <trkpt lat="44.67583" lon="-0.8702">
        <ele>45.5</ele>
        <time>2021-06-01T10:26:27.200Z</time>
      </trkpt>
      <trkpt lat="44.67588" lon="-0.86995">
        <ele>46.3</ele>
        <time>2021-06-01T10:26:35.611Z</time>
      </trkpt>
      <trkpt lat="44.67599" lon="-0.86965">
        <ele>47.7</ele>
        <time>2021-06-01T10:26:47.808Z</time>
      </trkpt>
      <trkpt lat="44.67592" lon="-0.86939">
        <ele>48.4</ele>
        <time>2021-06-01T10:26:55.846Z</time>
      </trkpt>
      <trkpt lat="44.67575" lon="-0.86952">
        <ele>47.9</ele>
        <time>2021-06-01T10:26:58.740Z</time>
      </trkpt>
      <trkpt lat="44.67564" lon="-0.86973">
        <ele>47.4</ele>
        <time>2021-06-01T10:27:01.480Z</time>
      </trkpt>
      <trkpt lat="44.67557" lon="-0.87002">
        <ele>46.6</ele>
        <time>2021-06-01T10:27:04.388Z</time>
      </trkpt>
      <trkpt lat="44.67551" lon="-0.87027">
        <ele>45.9</ele>
        <time>2021-06-01T10:27:06.880Z</time>
      </trkpt>
      <trkpt lat="44.67538" lon="-0.87044">
        <ele>45.5</ele>
        <time>2021-06-01T10:27:09.635Z</time>
      </trkpt>
      <trkpt lat="44.67522" lon="-0.8706">
        <ele>45</ele>
        <time>2021-06-01T10:27:12.582Z</time>
      </trkpt>
      <trkpt lat="44.67505" lon="-0.87069">
        <ele>44.7</ele>
        <time>2021-06-01T10:27:15.608Z</time>
      </trkpt>
      <trkpt lat="44.67492" lon="-0.87092">
        <ele>44.1</ele>
        <time>2021-06-01T10:27:18.637Z</time>
      </trkpt>
      <trkpt lat="44.67471" lon="-0.87089">
        <ele>44.6</ele>
        <time>2021-06-01T10:27:26.043Z</time>
      </trkpt>
      <trkpt lat="44.67459" lon="-0.87068">
        <ele>45.5</ele>
        <time>2021-06-01T10:27:35.068Z</time>
      </trkpt>
      <trkpt lat="44.67451" lon="-0.87044">
        <ele>46.5</ele>
        <time>2021-06-01T10:27:44.308Z</time>
      </trkpt>
      <trkpt lat="44.6747" lon="-0.8704">
        <ele>46.4</ele>
        <time>2021-06-01T10:27:49.196Z</time>
      </trkpt>
      <trkpt lat="44.67479" lon="-0.87016">
        <ele>47.3</ele>
        <time>2021-06-01T10:27:58.266Z</time>
      </trkpt>
      <trkpt lat="44.67474" lon="-0.86991">
        <ele>48.2</ele>
        <time>2021-06-01T10:28:07.065Z</time>
      </trkpt>
      <trkpt lat="44.67471" lon="-0.86963">
        <ele>48.7</ele>
        <time>2021-06-01T10:28:14.226Z</time>
      </trkpt>
      <trkpt lat="44.67458" lon="-0.86944">
        <ele>49</ele>
        <time>2021-06-01T10:28:20.262Z</time>
      </trkpt>
      <trkpt lat="44.67447" lon="-0.8692">
        <ele>49.3</ele>
        <time>2021-06-01T10:28:26.714Z</time>
      </trkpt>
      <trkpt lat="44.67428" lon="-0.86936">
        <ele>48.9</ele>
        <time>2021-06-01T10:28:30.335Z</time>
      </trkpt>
      <trkpt lat="44.6741" lon="-0.86943">
        <ele>48.8</ele>
        <time>2021-06-01T10:28:35.077Z</time>
      </trkpt>
      <trkpt lat="44.67409" lon="-0.86968">
        <ele>48.6</ele>
        <time>2021-06-01T10:28:38.248Z</time>
      </trkpt>
      <trkpt lat="44.6739" lon="-0.86972">
        <ele>49</ele>
        <time>2021-06-01T10:28:44.770Z</time>
      </trkpt>
      <trkpt lat="44.67376" lon="-0.86946">
        <ele>49.2</ele>
        <time>2021-06-01T10:28:51.688Z</time>
      </trkpt>
      <trkpt lat="44.67362" lon="-0.86925">
        <ele>49.1</ele>
        <time>2021-06-01T10:28:56.921Z</time>
      </trkpt>
      <trkpt lat="44.67357" lon="-0.86899">
        <ele>49.1</ele>
        <time>2021-06-01T10:29:02.183Z</time>
      </trkpt>
      <trkpt lat="44.67367" lon="-0.86878">
        <ele>49.2</ele>
        <time>2021-06-01T10:29:07.386Z</time>
      </trkpt>
      <trkpt lat="44.67363" lon="-0.86846">
        <ele>49.3</ele>
        <time>2021-06-01T10:29:13.996Z</time>
      </trkpt>
      <trkpt lat="44.67363" lon="-0.86815">
        <ele>49.4</ele>
        <time>2021-06-01T10:29:20.315Z</time>
      </trkpt>
      <trkpt lat="44.67367" lon="-0.86787">
        <ele>49.6</ele>
        <time>2021-06-01T10:29:26.449Z</time>
      </trkpt>
      <trkpt lat="44.67365" lon="-0.86756">
        <ele>49.7</ele>
        <time>2021-06-01T10:29:32.793Z</time>
      </trkpt>
      <trkpt lat="44.67358" lon="-0.86731">
        <ele>49.5</ele>
        <time>2021-06-01T10:29:36.230Z</time>
      </trkpt>
      <trkpt lat="44.67356" lon="-0.86761">
        <ele>49.5</ele>
        <time>2021-06-01T10:29:42.117Z</time>
      </trkpt>
      <trkpt lat="44.67358" lon="-0.86791">
        <ele>49.4</ele>
        <time>2021-06-01T10:29:47.611Z</time>
      </trkpt>
      <trkpt lat="44.67346" lon="-0.86809">
        <ele>49.2</ele>
        <time>2021-06-01T10:29:50.729Z</time>
      </trkpt>
      <trkpt lat="44.67343" lon="-0.86839">
        <ele>49.1</ele>
        <time>2021-06-01T10:29:56.255Z</time>
      </trkpt>
      <trkpt lat="44.67345" lon="-0.86871">
        <ele>49.1</ele>
        <time>2021-06-01T10:30:02.531Z</time>
      </trkpt>
      <trkpt lat="44.67338" lon="-0.86899">
        <ele>49</ele>
        <time>2021-06-01T10:30:07.937Z</time>
      </trkpt>
      <trkpt lat="44.67333" lon="-0.86929">
        <ele>49.3</ele>
        <time>2021-06-01T10:30:14.821Z</time>
      </trkpt>
      <trkpt lat="44.67344" lon="-0.86955">
        <ele>49.7</ele>
        <time>2021-06-01T10:30:21.945Z</time>
      </trkpt>
      <trkpt lat="44.67361" lon="-0.86968">
        <ele>49.6</ele>
        <time>2021-06-01T10:30:26.872Z</time>
      </trkpt>
      <trkpt lat="44.67373" lon="-0.86995">
        <ele>49.5</ele>
        <time>2021-06-01T10:30:32.698Z</time>
      </trkpt>
      <trkpt lat="44.67385" lon="-0.87022">
        <ele>48.7</ele>
        <time>2021-06-01T10:30:35.764Z</time>
      </trkpt>
      <trkpt lat="44.67404" lon="-0.87021">
        <ele>48</ele>
        <time>2021-06-01T10:30:38.302Z</time>
      </trkpt>
      <trkpt lat="44.67418" lon="-0.87037">
        <ele>47.1</ele>
        <time>2021-06-01T10:30:40.436Z</time>
      </trkpt>
      <trkpt lat="44.67426" lon="-0.87064">
        <ele>46.3</ele>
        <time>2021-06-01T10:30:43.168Z</time>
      </trkpt>
      <trkpt lat="44.67433" lon="-0.87089">
        <ele>45.5</ele>
        <time>2021-06-01T10:30:45.597Z</time>
      </trkpt>
      <trkpt lat="44.67448" lon="-0.87104">
        <ele>45</ele>
        <time>2021-06-01T10:30:48.310Z</time>
      </trkpt>
      <trkpt lat="44.67443" lon="-0.87133">
        <ele>44.8</ele>
        <time>2021-06-01T10:30:52.180Z</time>
      </trkpt>
      <trkpt lat="44.67438" lon="-0.87164">
        <ele>44.5</ele>
        <time>2021-06-01T10:30:56.101Z</time>
      </trkpt>
      <trkpt lat="44.6743" lon="-0.87192">
        <ele>44.3</ele>
        <time>2021-06-01T10:31:00.020Z</time>
      </trkpt>
      <trkpt lat="44.67417" lon="-0.87217">
        <ele>43.8</ele>
        <time>2021-06-01T10:31:03.431Z</time>
      </trkpt>
      <trkpt lat="44.67419" lon="-0.87244">
        <ele>43.2</ele>
        <time>2021-06-01T10:31:06.161Z</time>
      </trkpt>
      <trkpt lat="44.67412" lon="-0.87272">
        <ele>43.3</ele>
        <time>2021-06-01T10:31:12.223Z</time>
      </trkpt>
      <trkpt lat="44.67411" lon="-0.873">
        <ele>43.3</ele>
        <time>2021-06-01T10:31:17.700Z</time>
      </trkpt>
      <trkpt lat="44.67405" lon="-0.87326">
        <ele>43.6</ele>
        <time>2021-06-01T10:31:23.920Z</time>
      </trkpt>
      <trkpt lat="44.67408" lon="-0.87354">
        <ele>43.8</ele>
        <time>2021-06-01T10:31:30.006Z</time>
      </trkpt>
      <trkpt lat="44.67425" lon="-0.8737">
        <ele>44.2</ele>
        <time>2021-06-01T10:31:36.852Z</time>
      </trkpt>
      <trkpt lat="44.67438" lon="-0.8739">
        <ele>45.1</ele>
        <time>2021-06-01T10:31:45.914Z</time>
      </trkpt>
      <trkpt lat="44.67442" lon="-0.87416">
        <ele>45.6</ele>
        <time>2021-06-01T10:31:52.771Z</time>
      </trkpt>
      <trkpt lat="44.67444" lon="-0.87448">
        <ele>45.3</ele>
        <time>2021-06-01T10:31:56.741Z</time>
      </trkpt>
      <trkpt lat="44.67454" lon="-0.87474">
        <ele>45</ele>
        <time>2021-06-01T10:32:00.341Z</time>
      </trkpt>
      <trkpt lat="44.67463" lon="-0.87499">
        <ele>44.5</ele>
        <time>2021-06-01T10:32:03.345Z</time>
      </trkpt>
      <trkpt lat="44.67452" lon="-0.87519">
        <ele>44.1</ele>
        <time>2021-06-01T10:32:06.144Z</time>
      </trkpt>
      <trkpt lat="44.67447" lon="-0.87545">
        <ele>43.6</ele>
        <time>2021-06-01T10:32:09.000Z</time>
      </trkpt>
      <trkpt lat="44.67428" lon="-0.87557">
        <ele>43.5</ele>
        <time>2021-06-01T10:32:14.330Z</time>
      </trkpt>
      <trkpt lat="44.6741" lon="-0.87556">
        <ele>43.7</ele>
        <time>2021-06-01T10:32:19.840Z</time>
      </trkpt>
      <trkpt lat="44.6739" lon="-0.87564">
        <ele>43.5</ele>
        <time>2021-06-01T10:32:23.623Z</time>
      </trkpt>
      <trkpt lat="44.67375" lon="-0.87583">
        <ele>43</ele>
        <time>2021-06-01T10:32:26.677Z</time>
      </trkpt>
      <trkpt lat="44.67356" lon="-0.87601">
        <ele>43.1</ele>
        <time>2021-06-01T10:32:33.234Z</time>
      </trkpt>
      <trkpt lat="44.67336" lon="-0.87605">
        <ele>43</ele>
        <time>2021-06-01T10:32:38.393Z</time>
      </trkpt>
      <trkpt lat="44.6732" lon="-0.87584">
        <ele>43.2</ele>
        <time>2021-06-01T10:32:44.955Z</time>
      </trkpt>
      <trkpt lat="44.67303" lon="-0.87597">
        <ele>43.2</ele>
        <time>2021-06-01T10:32:50.272Z</time>
      </trkpt>
      <trkpt lat="44.67286" lon="-0.87613">
        <ele>43.2</ele>
        <time>2021-06-01T10:32:55.892Z</time>
      </trkpt>
      <trkpt lat="44.67267" lon="-0.87611">
        <ele>43.3</ele>
        <time>2021-06-01T10:33:01.391Z</time>
      </trkpt>
      <trkpt lat="44.67253" lon="-0.87629">
        <ele>42.9</ele>
        <time>2021-06-01T10:33:04.384Z</time>
      </trkpt>
      <trkpt lat="44.67234" lon="-0.87639">
        <ele>42.6</ele>
        <time>2021-06-01T10:33:07.836Z</time>
      </trkpt>
      <trkpt lat="44.67216" lon="-0.8764">
        <ele>42.5</ele>
        <time>2021-06-01T10:33:12.398Z</time>
      </trkpt>
      <trkpt lat="44.67195" lon="-0.87641">
        <ele>42.4</ele>
        <time>2021-06-01T10:33:17.778Z</time>
      </trkpt>
      <trkpt lat="44.67181" lon="-0.87658">
        <ele>42.1</ele>
        <time>2021-06-01T10:33:20.871Z</time>
      </trkpt>
      <trkpt lat="44.67164" lon="-0.87648">
        <ele>42.3</ele>
        <time>2021-06-01T10:33:26.493Z</time>
      </trkpt>
      <trkpt lat="44.67148" lon="-0.87661">
        <ele>42.7</ele>
        <time>2021-06-01T10:33:32.825Z</time>
      </trkpt>
      <trkpt lat="44.67137" lon="-0.87685">
        <ele>43</ele>
        <time>2021-06-01T10:33:39.277Z</time>
      </trkpt>
      <trkpt lat="44.67121" lon="-0.87696">
        <ele>43.5</ele>
        <time>2021-06-01T10:33:45.864Z</time>
      </trkpt>
      <trkpt lat="44.67101" lon="-0.87708">
        <ele>44</ele>
        <time>2021-06-01T10:33:53.433Z</time>
      </trkpt>
      <trkpt lat="44.67087" lon="-0.87725">
        <ele>44.2</ele>
        <time>2021-06-01T10:33:59.074Z</time>
      </trkpt>
      <trkpt lat="44.67077" lon="-0.87749">
        <ele>44.3</ele>
        <time>2021-06-01T10:34:04.772Z</time>
      </trkpt>
      <trkpt lat="44.67067" lon="-0.87771">
        <ele>44.2</ele>
        <time>2021-06-01T10:34:09.485Z</time>
      </trkpt>
      <trkpt lat="44.67053" lon="-0.87789">
        <ele>44.7</ele>
        <time>2021-06-01T10:34:16.356Z</time>
      </trkpt>
      <trkpt lat="44.67045" lon="-0.87812">
        <ele>45</ele>
        <time>2021-06-01T10:34:22.248Z</time>
      </trkpt>
      <trkpt lat="44.67044" lon="-0.87842">
        <ele>44.6</ele>
        <time>2021-06-01T10:34:25.712Z</time>
      </trkpt>
      <trkpt lat="44.67053" lon="-0.87868">
        <ele>43.1</ele>
        <time>2021-06-01T10:34:28.030Z</time>
      </trkpt>
      <trkpt lat="44.67054" lon="-0.87899">
        <ele>42.2</ele>
        <time>2021-06-01T10:34:30.865Z</time>
      </trkpt>
      <trkpt lat="44.67049" lon="-0.87928">
        <ele>41.9</ele>
        <time>2021-06-01T10:34:34.506Z</time>
      </trkpt>
      <trkpt lat="44.67047" lon="-0.87953">
        <ele>41.2</ele>
        <time>2021-06-01T10:34:36.840Z</time>
      </trkpt>
      <trkpt lat="44.67049" lon="-0.87982">
        <ele>40.1</ele>
        <time>2021-06-01T10:34:39.225Z</time>
      </trkpt>
      <trkpt lat="44.67038" lon="-0.88003">
        <ele>40.2</ele>
        <time>2021-06-01T10:34:44.586Z</time>
      </trkpt>
      <trkpt lat="44.67019" lon="-0.88004">
        <ele>41.5</ele>
        <time>2021-06-01T10:34:54.970Z</time>
      </trkpt>
      <trkpt lat="44.67003" lon="-0.88016">
        <ele>42</ele>
        <time>2021-06-01T10:35:01.636Z</time>
      </trkpt>
      <trkpt lat="44.66985" lon="-0.88026">
        <ele>42.8</ele>
        <time>2021-06-01T10:35:10.194Z</time>
      </trkpt>
      <trkpt lat="44.66975" lon="-0.88049">
        <ele>42.7</ele>
        <time>2021-06-01T10:35:15.071Z</time>
      </trkpt>
      <trkpt lat="44.66983" lon="-0.88072">
        <ele>41.1</ele>
        <time>2021-06-01T10:35:17.124Z</time>
      </trkpt>
      <trkpt lat="44.66984" lon="-0.88098">
        <ele>40.5</ele>
        <time>2021-06-01T10:35:19.706Z</time>
      </trkpt>
      <trkpt lat="44.66977" lon="-0.88121">
        <ele>41</ele>
        <time>2021-06-01T10:35:26.289Z</time>
      </trkpt>
      <trkpt lat="44.66987" lon="-0.88145">
        <ele>40</ele>
        <time>2021-06-01T10:35:28.616Z</time>
      </trkpt>
      <trkpt lat="44.66983" lon="-0.88172">
        <ele>40.2</ele>
        <time>2021-06-01T10:35:34.560Z</time>
      </trkpt>
      <trkpt lat="44.66971" lon="-0.88193">
        <ele>41</ele>
        <time>2021-06-01T10:35:43.084Z</time>
      </trkpt>
      <trkpt lat="44.66959" lon="-0.88215">
        <ele>41.7</ele>
        <time>2021-06-01T10:35:51.112Z</time>
      </trkpt>
      <trkpt lat="44.66953" lon="-0.8824">
        <ele>41.9</ele>
        <time>2021-06-01T10:35:56.825Z</time>
      </trkpt>
      <trkpt lat="44.66938" lon="-0.88254">
        <ele>42.6</ele>
        <time>2021-06-01T10:36:04.508Z</time>
      </trkpt>
      <trkpt lat="44.66941" lon="-0.88281">
        <ele>42</ele>
        <time>2021-06-01T10:36:07.262Z</time>
      </trkpt>
      <trkpt lat="44.66934" lon="-0.88308">
        <ele>41.9</ele>
        <time>2021-06-01T10:36:12.485Z</time>
      </trkpt>
      <trkpt lat="44.66939" lon="-0.88333">
        <ele>41.2</ele>
        <time>2021-06-01T10:36:14.924Z</time>
      </trkpt>
      <trkpt lat="44.66926" lon="-0.88356">
        <ele>42.1</ele>
        <time>2021-06-01T10:36:24.406Z</time>
      </trkpt>
      <trkpt lat="44.66911" lon="-0.8837">
        <ele>42.7</ele>
        <time>2021-06-01T10:36:31.526Z</time>
      </trkpt>
      <trkpt lat="44.66894" lon="-0.88381">
        <ele>43.6</ele>
        <time>2021-06-01T10:36:40.405Z</time>
      </trkpt>
      <trkpt lat="44.66872" lon="-0.88385">
        <ele>44.6</ele>
        <time>2021-06-01T10:36:50.729Z</time>
      </trkpt>
      <trkpt lat="44.66852" lon="-0.88393">
        <ele>45.5</ele>
        <time>2021-06-01T10:37:00.195Z</time>
      </trkpt>
      <trkpt lat="44.66833" lon="-0.88409">
        <ele>46.1</ele>
        <time>2021-06-01T10:37:08.288Z</time>
      </trkpt>
      <trkpt lat="44.66814" lon="-0.88406">
        <ele>45.9</ele>
        <time>2021-06-01T10:37:11.727Z</time>
      </trkpt>
      <trkpt lat="44.668" lon="-0.88422">
        <ele>45.4</ele>
        <time>2021-06-01T10:37:14.371Z</time>
      </trkpt>
      <trkpt lat="44.66784" lon="-0.88438">
        <ele>44.6</ele>
        <time>2021-06-01T10:37:16.894Z</time>
      </trkpt>
      <trkpt lat="44.66767" lon="-0.88451">
        <ele>44</ele>
        <time>2021-06-01T10:37:19.632Z</time>
      </trkpt>
      <trkpt lat="44.66749" lon="-0.88458">
        <ele>43.5</ele>
        <time>2021-06-01T10:37:22.396Z</time>
      </trkpt>
      <trkpt lat="44.66733" lon="-0.88476">
        <ele>42.5</ele>
        <time>2021-06-01T10:37:24.844Z</time>
      </trkpt>
      <trkpt lat="44.66718" lon="-0.885">
        <ele>41.6</ele>
        <time>2021-06-01T10:37:27.795Z</time>
      </trkpt>
      <trkpt lat="44.66699" lon="-0.88493">
        <ele>41.5</ele>
        <time>2021-06-01T10:37:32.801Z</time>
      </trkpt>
      <trkpt lat="44.66678" lon="-0.88493">
        <ele>41.2</ele>
        <time>2021-06-01T10:37:36.398Z</time>
      </trkpt>
      <trkpt lat="44.66659" lon="-0.88492">
        <ele>40.6</ele>
        <time>2021-06-01T10:37:39.073Z</time>
      </trkpt>
      <trkpt lat="44.66642" lon="-0.88508">
        <ele>39.3</ele>
        <time>2021-06-01T10:37:41.236Z</time>
      </trkpt>
      <trkpt lat="44.6663" lon="-0.88528">
        <ele>38.2</ele>
        <time>2021-06-01T10:37:43.275Z</time>
      </trkpt>
      <trkpt lat="44.66617" lon="-0.88546">
        <ele>37.4</ele>
        <time>2021-06-01T10:37:45.553Z</time>
      </trkpt>
      <trkpt lat="44.66606" lon="-0.8857">
        <ele>36.7</ele>
        <time>2021-06-01T10:37:48.326Z</time>
      </trkpt>
      <trkpt lat="44.6659" lon="-0.88585">
        <ele>36.2</ele>
        <time>2021-06-01T10:37:51.197Z</time>
      </trkpt>
      <trkpt lat="44.66571" lon="-0.88591">
        <ele>35.9</ele>
        <time>2021-06-01T10:37:54.485Z</time>
      </trkpt>
      <trkpt lat="44.66552" lon="-0.88603">
        <ele>35.8</ele>
        <time>2021-06-01T10:37:59.816Z</time>
      </trkpt>
      <trkpt lat="44.66535" lon="-0.8862">
        <ele>35.6</ele>
        <time>2021-06-01T10:38:03.612Z</time>
      </trkpt>
      <trkpt lat="44.66514" lon="-0.88638">
        <ele>35.3</ele>
        <time>2021-06-01T10:38:07.938Z</time>
      </trkpt>
      <trkpt lat="44.66496" lon="-0.88637">
        <ele>35</ele>
        <time>2021-06-01T10:38:10.933Z</time>
      </trkpt>
      <trkpt lat="44.66476" lon="-0.8863">
        <ele>35</ele>
        <time>2021-06-01T10:38:16.596Z</time>
      </trkpt>
      <trkpt lat="44.66457" lon="-0.88633">
        <ele>35</ele>
        <time>2021-06-01T10:38:21.849Z</time>
      </trkpt>
      <trkpt lat="44.66439" lon="-0.88639">
        <ele>35</ele>
        <time>2021-06-01T10:38:26.932Z</time>
      </trkpt>
      <trkpt lat="44.66422" lon="-0.88655">
        <ele>35</ele>
        <time>2021-06-01T10:38:32.552Z</time>
      </trkpt>
      <trkpt lat="44.66407" lon="-0.8867">
        <ele>35</ele>
        <time>2021-06-01T10:38:37.609Z</time>
      </trkpt>
      <trkpt lat="44.66391" lon="-0.88682">
        <ele>35.2</ele>
        <time>2021-06-01T10:38:43.152Z</time>
      </trkpt>
      <trkpt lat="44.66375" lon="-0.88666">
        <ele>35</ele>
        <time>2021-06-01T10:38:46.697Z</time>
      </trkpt>
      <trkpt lat="44.66361" lon="-0.88646">
        <ele>35.2</ele>
        <time>2021-06-01T10:38:52.734Z</time>
      </trkpt>
      <trkpt lat="44.66363" lon="-0.88616">
        <ele>35.4</ele>
        <time>2021-06-01T10:38:59.173Z</time>
      </trkpt>
      <trkpt lat="44.66339" lon="-0.88601">
        <ele>35.7</ele>
        <time>2021-06-01T10:39:07.232Z</time>
      </trkpt>
      <trkpt lat="44.66321" lon="-0.88593">
        <ele>35.9</ele>
        <time>2021-06-01T10:39:12.976Z</time>
      </trkpt>
      <trkpt lat="44.66302" lon="-0.88571">
        <ele>36.1</ele>
        <time>2021-06-01T10:39:20.283Z</time>
      </trkpt>
      <trkpt lat="44.66295" lon="-0.88546">
        <ele>36.2</ele>
        <time>2021-06-01T10:39:25.797Z</time>
      </trkpt>
      <trkpt lat="44.66284" lon="-0.8852">
        <ele>36.4</ele>
        <time>2021-06-01T10:39:32.259Z</time>
      </trkpt>
      <trkpt lat="44.66269" lon="-0.88502">
        <ele>36.8</ele>
        <time>2021-06-01T10:39:38.914Z</time>
      </trkpt>
      <trkpt lat="44.66268" lon="-0.88467">
        <ele>38.5</ele>
        <time>2021-06-01T10:39:52.507Z</time>
      </trkpt>
      <trkpt lat="44.66252" lon="-0.88452">
        <ele>39.8</ele>
        <time>2021-06-01T10:40:02.950Z</time>
      </trkpt>
      <trkpt lat="44.66232" lon="-0.88441">
        <ele>39.9</ele>
        <time>2021-06-01T10:40:09.113Z</time>
      </trkpt>
      <trkpt lat="44.66212" lon="-0.88435">
        <ele>39.4</ele>
        <time>2021-06-01T10:40:12.218Z</time>
      </trkpt>
      <trkpt lat="44.6619" lon="-0.88438">
        <ele>38.4</ele>
        <time>2021-06-01T10:40:14.943Z</time>
      </trkpt>
      <trkpt lat="44.6617" lon="-0.88439">
        <ele>37.6</ele>
        <time>2021-06-01T10:40:17.534Z</time>
      </trkpt>
      <trkpt lat="44.6615" lon="-0.88454">
        <ele>37.2</ele>
        <time>2021-06-01T10:40:21.258Z</time>
      </trkpt>
      <trkpt lat="44.6613" lon="-0.88452">
        <ele>37.4</ele>
        <time>2021-06-01T10:40:27.321Z</time>
      </trkpt>
      <trkpt lat="44.66111" lon="-0.88444">
        <ele>37.8</ele>
        <time>2021-06-01T10:40:34.005Z</time>
      </trkpt>
      <trkpt lat="44.661" lon="-0.88422">
        <ele>38.6</ele>
        <time>2021-06-01T10:40:42.524Z</time>
      </trkpt>
      <trkpt lat="44.66083" lon="-0.88408">
        <ele>39.5</ele>
        <time>2021-06-01T10:40:51.728Z</time>
      </trkpt>
      <trkpt lat="44.66065" lon="-0.88399">
        <ele>40</ele>
        <time>2021-06-01T10:40:58.632Z</time>
      </trkpt>
      <trkpt lat="44.66045" lon="-0.88407">
        <ele>39.8</ele>
        <time>2021-06-01T10:41:02.415Z</time>
      </trkpt>
      <trkpt lat="44.66025" lon="-0.88407">
        <ele>39.9</ele>
        <time>2021-06-01T10:41:08.174Z</time>
      </trkpt>
      <trkpt lat="44.6601" lon="-0.88426">
        <ele>39.7</ele>
        <time>2021-06-01T10:41:11.833Z</time>
      </trkpt>
      <trkpt lat="44.65989" lon="-0.88418">
        <ele>40.2</ele>
        <time>2021-06-01T10:41:19.404Z</time>
      </trkpt>
      <trkpt lat="44.65982" lon="-0.88392">
        <ele>40.4</ele>
        <time>2021-06-01T10:41:25.392Z</time>
      </trkpt>
      <trkpt lat="44.65984" lon="-0.88364">
        <ele>40.4</ele>
        <time>2021-06-01T10:41:30.891Z</time>
      </trkpt>
      <trkpt lat="44.65986" lon="-0.88337">
        <ele>40.3</ele>
        <time>2021-06-01T10:41:35.806Z</time>
      </trkpt>
      <trkpt lat="44.6599" lon="-0.88311">
        <ele>40.7</ele>
        <time>2021-06-01T10:41:42.253Z</time>
      </trkpt>
      <trkpt lat="44.65991" lon="-0.88282">
        <ele>41.3</ele>
        <time>2021-06-01T10:41:49.985Z</time>
      </trkpt>
      <trkpt lat="44.65992" lon="-0.88248">
        <ele>42</ele>
        <time>2021-06-01T10:41:59.031Z</time>
      </trkpt>
      <trkpt lat="44.65995" lon="-0.88218">
        <ele>42</ele>
        <time>2021-06-01T10:42:04.952Z</time>
      </trkpt>
      <trkpt lat="44.65994" lon="-0.88192">
        <ele>42.1</ele>
        <time>2021-06-01T10:42:10.305Z</time>
      </trkpt>
      <trkpt lat="44.65977" lon="-0.88188">
        <ele>42.4</ele>
        <time>2021-06-01T10:42:15.939Z</time>
      </trkpt>
      <trkpt lat="44.65958" lon="-0.88204">
        <ele>42.6</ele>
        <time>2021-06-01T10:42:22.573Z</time>
      </trkpt>
      <trkpt lat="44.65941" lon="-0.88221">
        <ele>42.5</ele>
        <time>2021-06-01T10:42:27.912Z</time>
      </trkpt>
      <trkpt lat="44.65922" lon="-0.88237">
        <ele>42.3</ele>
        <time>2021-06-01T10:42:31.973Z</time>
      </trkpt>
      <trkpt lat="44.65907" lon="-0.88252">
        <ele>41.5</ele>
        <time>2021-06-01T10:42:34.280Z</time>
      </trkpt>
      <trkpt lat="44.65893" lon="-0.88269">
        <ele>41</ele>
        <time>2021-06-01T10:42:37.010Z</time>
      </trkpt>
      <trkpt lat="44.6588" lon="-0.88291">
        <ele>40.7</ele>
        <time>2021-06-01T10:42:40.474Z</time>
      </trkpt>
      <trkpt lat="44.65867" lon="-0.8831">
        <ele>40.5</ele>
        <time>2021-06-01T10:42:43.838Z</time>
      </trkpt>
      <trkpt lat="44.65853" lon="-0.88329">
        <ele>40.4</ele>
        <time>2021-06-01T10:42:48.795Z</time>
      </trkpt>
      <trkpt lat="44.65833" lon="-0.88344">
        <ele>39.7</ele>
        <time>2021-06-01T10:42:52.006Z</time>
      </trkpt>
      <trkpt lat="44.65815" lon="-0.88355">
        <ele>38.6</ele>
        <time>2021-06-01T10:42:54.211Z</time>
      </trkpt>
      <trkpt lat="44.65795" lon="-0.88365">
        <ele>37.5</ele>
        <time>2021-06-01T10:42:56.680Z</time>
      </trkpt>
      <trkpt lat="44.65772" lon="-0.88376">
        <ele>36.4</ele>
        <time>2021-06-01T10:42:59.674Z</time>
      </trkpt>
      <trkpt lat="44.65754" lon="-0.88394">
        <ele>35.9</ele>
        <time>2021-06-01T10:43:03.098Z</time>
      </trkpt>
      <trkpt lat="44.65737" lon="-0.88406">
        <ele>36.2</ele>
        <time>2021-06-01T10:43:09.207Z</time>
      </trkpt>
      <trkpt lat="44.65719" lon="-0.88418">
        <ele>36.7</ele>
        <time>2021-06-01T10:43:16.314Z</time>
      </trkpt>
      <trkpt lat="44.65695" lon="-0.88424">
        <ele>37.4</ele>
        <time>2021-06-01T10:43:25.402Z</time>
      </trkpt>
      <trkpt lat="44.65676" lon="-0.8842">
        <ele>37.8</ele>
        <time>2021-06-01T10:43:31.924Z</time>
      </trkpt>
      <trkpt lat="44.65654" lon="-0.88428">
        <ele>38</ele>
        <time>2021-06-01T10:43:38.715Z</time>
      </trkpt>
      <trkpt lat="44.65639" lon="-0.88443">
        <ele>38</ele>
        <time>2021-06-01T10:43:43.772Z</time>
      </trkpt>
      <trkpt lat="44.65622" lon="-0.88458">
        <ele>38</ele>
        <time>2021-06-01T10:43:49.287Z</time>
      </trkpt>
      <trkpt lat="44.65602" lon="-0.88474">
        <ele>37.9</ele>
        <time>2021-06-01T10:43:55.215Z</time>
      </trkpt>
      <trkpt lat="44.65583" lon="-0.88489">
        <ele>37.9</ele>
        <time>2021-06-01T10:44:01.202Z</time>
      </trkpt>
      <trkpt lat="44.65577" lon="-0.885">
        <ele>38.3</ele>
        <time>2021-06-01T10:44:05.513Z</time>
      </trkpt>
      <trkpt lat="44.6557" lon="-0.8848">
        <ele>38.4</ele>
        <time>2021-06-01T10:44:10.136Z</time>
      </trkpt>
      <trkpt lat="44.65567" lon="-0.88458">
        <ele>38.2</ele>
        <time>2021-06-01T10:44:12.925Z</time>
      </trkpt>
      <trkpt lat="44.65562" lon="-0.88432">
        <ele>38</ele>
        <time>2021-06-01T10:44:16.373Z</time>
      </trkpt>
      <trkpt lat="44.65555" lon="-0.88408">
        <ele>38.2</ele>
        <time>2021-06-01T10:44:22.001Z</time>
      </trkpt>
      <trkpt lat="44.6555" lon="-0.88379">
        <ele>39.1</ele>
        <time>2021-06-01T10:44:31.537Z</time>
      </trkpt>
      <trkpt lat="44.65544" lon="-0.88353">
        <ele>39.9</ele>
        <time>2021-06-01T10:44:40.110Z</time>
      </trkpt>
      <trkpt lat="44.65538" lon="-0.88329">
        <ele>40.7</ele>
        <time>2021-06-01T10:44:48.465Z</time>
      </trkpt>
      <trkpt lat="44.65533" lon="-0.88301">
        <ele>41.1</ele>
        <time>2021-06-01T10:44:55.332Z</time>
      </trkpt>
      <trkpt lat="44.65532" lon="-0.88274">
        <ele>41.4</ele>
        <time>2021-06-01T10:45:01.497Z</time>
      </trkpt>
      <trkpt lat="44.65523" lon="-0.88252">
        <ele>41.7</ele>
        <time>2021-06-01T10:45:07.348Z</time>
      </trkpt>
      <trkpt lat="44.65508" lon="-0.88227">
        <ele>42.2</ele>
        <time>2021-06-01T10:45:15.306Z</time>
      </trkpt>
      <trkpt lat="44.655" lon="-0.88199">
        <ele>42.6</ele>
        <time>2021-06-01T10:45:22.418Z</time>
      </trkpt>
      <trkpt lat="44.65499" lon="-0.88173">
        <ele>42.9</ele>
        <time>2021-06-01T10:45:28.393Z</time>
      </trkpt>
      <trkpt lat="44.65499" lon="-0.88145">
        <ele>41.9</ele>
        <time>2021-06-01T10:45:30.743Z</time>
      </trkpt>
      <trkpt lat="44.65496" lon="-0.88118">
        <ele>40.6</ele>
        <time>2021-06-01T10:45:32.934Z</time>
      </trkpt>
      <trkpt lat="44.65497" lon="-0.88088">
        <ele>39.2</ele>
        <time>2021-06-01T10:45:35.159Z</time>
      </trkpt>
      <trkpt lat="44.65492" lon="-0.88082">
        <ele>38.9</ele>
        <time>2021-06-01T10:45:35.967Z</time>
      </trkpt>
      <trkpt lat="44.65473" lon="-0.88075">
        <ele>38.7</ele>
        <time>2021-06-01T10:45:39.513Z</time>
      </trkpt>
      <trkpt lat="44.65457" lon="-0.88089">
        <ele>38.8</ele>
        <time>2021-06-01T10:45:44.956Z</time>
      </trkpt>
      <trkpt lat="44.65443" lon="-0.88109">
        <ele>39.5</ele>
        <time>2021-06-01T10:45:53.035Z</time>
      </trkpt>
      <trkpt lat="44.65427" lon="-0.88128">
        <ele>40.3</ele>
        <time>2021-06-01T10:46:01.886Z</time>
      </trkpt>
      <trkpt lat="44.65413" lon="-0.88146">
        <ele>40.8</ele>
        <time>2021-06-01T10:46:08.758Z</time>
      </trkpt>
      <trkpt lat="44.65398" lon="-0.88162">
        <ele>40.5</ele>
        <time>2021-06-01T10:46:11.917Z</time>
      </trkpt>
      <trkpt lat="44.65387" lon="-0.88184">
        <ele>39.9</ele>
        <time>2021-06-01T10:46:14.613Z</time>
      </trkpt>
      <trkpt lat="44.65389" lon="-0.88211">
        <ele>40</ele>
        <time>2021-06-01T10:46:20.183Z</time>
      </trkpt>
      <trkpt lat="44.65375" lon="-0.88227">
        <ele>39.4</ele>
        <time>2021-06-01T10:46:22.678Z</time>
      </trkpt>
      <trkpt lat="44.6536" lon="-0.88246">
        <ele>38.9</ele>
        <time>2021-06-01T10:46:25.733Z</time>
      </trkpt>
      <trkpt lat="44.65346" lon="-0.88263">
        <ele>38.5</ele>
        <time>2021-06-01T10:46:28.634Z</time>
      </trkpt>
      <trkpt lat="44.6533" lon="-0.88278">
        <ele>38.2</ele>
        <time>2021-06-01T10:46:31.874Z</time>
      </trkpt>
      <trkpt lat="44.65312" lon="-0.88296">
        <ele>37.7</ele>
        <time>2021-06-01T10:46:35.297Z</time>
      </trkpt>
      <trkpt lat="44.65297" lon="-0.88314">
        <ele>37.4</ele>
        <time>2021-06-01T10:46:38.636Z</time>
      </trkpt>
      <trkpt lat="44.65285" lon="-0.88319">
        <ele>37</ele>
        <time>2021-06-01T10:46:40.390Z</time>
      </trkpt>
      <trkpt lat="44.65276" lon="-0.88342">
        <ele>36.8</ele>
        <time>2021-06-01T10:46:43.738Z</time>
      </trkpt>
      <trkpt lat="44.65257" lon="-0.88343">
        <ele>36.1</ele>
        <time>2021-06-01T10:46:46.275Z</time>
      </trkpt>
      <trkpt lat="44.6524" lon="-0.88353">
        <ele>35.4</ele>
        <time>2021-06-01T10:46:48.707Z</time>
      </trkpt>
      <trkpt lat="44.65222" lon="-0.88342">
        <ele>34.9</ele>
        <time>2021-06-01T10:46:51.653Z</time>
      </trkpt>
      <trkpt lat="44.65207" lon="-0.88327">
        <ele>34.5</ele>
        <time>2021-06-01T10:46:54.536Z</time>
      </trkpt>
      <trkpt lat="44.65202" lon="-0.88322">
        <ele>34.4</ele>
        <time>2021-06-01T10:46:55.561Z</time>
      </trkpt>
      <trkpt lat="44.6521" lon="-0.88293">
        <ele>34.8</ele>
        <time>2021-06-01T10:47:02.847Z</time>
      </trkpt>
      <trkpt lat="44.65208" lon="-0.88267">
        <ele>34.9</ele>
        <time>2021-06-01T10:47:08.223Z</time>
      </trkpt>
      <trkpt lat="44.65204" lon="-0.88242">
        <ele>35.3</ele>
        <time>2021-06-01T10:47:14.491Z</time>
      </trkpt>
      <trkpt lat="44.65193" lon="-0.88218">
        <ele>36</ele>
        <time>2021-06-01T10:47:22.646Z</time>
      </trkpt>
      <trkpt lat="44.65178" lon="-0.88197">
        <ele>36.9</ele>
        <time>2021-06-01T10:47:32.171Z</time>
      </trkpt>
      <trkpt lat="44.65165" lon="-0.88179">
        <ele>37.6</ele>
        <time>2021-06-01T10:47:39.901Z</time>
      </trkpt>
      <trkpt lat="44.65153" lon="-0.88155">
        <ele>37.9</ele>
        <time>2021-06-01T10:47:46.504Z</time>
      </trkpt>
      <trkpt lat="44.65144" lon="-0.88133">
        <ele>38.1</ele>
        <time>2021-06-01T10:47:52.024Z</time>
      </trkpt>
      <trkpt lat="44.65143" lon="-0.88103">
        <ele>38.8</ele>
        <time>2021-06-01T10:48:00.412Z</time>
      </trkpt>
      <trkpt lat="44.65139" lon="-0.88076">
        <ele>38.8</ele>
        <time>2021-06-01T10:48:05.802Z</time>
      </trkpt>
      <trkpt lat="44.65137" lon="-0.88046">
        <ele>37.9</ele>
        <time>2021-06-01T10:48:08.525Z</time>
      </trkpt>
      <trkpt lat="44.65145" lon="-0.8802">
        <ele>38.3</ele>
        <time>2021-06-01T10:48:15.292Z</time>
      </trkpt>
      <trkpt lat="44.65153" lon="-0.87996">
        <ele>39</ele>
        <time>2021-06-01T10:48:23.141Z</time>
      </trkpt>
      <trkpt lat="44.65169" lon="-0.87983">
        <ele>40.9</ele>
        <time>2021-06-01T10:48:36.717Z</time>
      </trkpt>
      <trkpt lat="44.65183" lon="-0.87963">
        <ele>41.5</ele>
        <time>2021-06-01T10:48:44.285Z</time>
      </trkpt>
      <trkpt lat="44.652" lon="-0.87955">
        <ele>42.5</ele>
        <time>2021-06-01T10:48:53.237Z</time>
      </trkpt>
      <trkpt lat="44.65206" lon="-0.87927">
        <ele>42.5</ele>
        <time>2021-06-01T10:48:58.952Z</time>
      </trkpt>
      <trkpt lat="44.65199" lon="-0.87903">
        <ele>41</ele>
        <time>2021-06-01T10:49:01.032Z</time>
      </trkpt>
      <trkpt lat="44.65206" lon="-0.87876">
        <ele>39.6</ele>
        <time>2021-06-01T10:49:03.336Z</time>
      </trkpt>
      <trkpt lat="44.65219" lon="-0.87848">
        <ele>38.9</ele>
        <time>2021-06-01T10:49:06.758Z</time>
      </trkpt>
      <trkpt lat="44.65238" lon="-0.87841">
        <ele>40.3</ele>
        <time>2021-06-01T10:49:17.723Z</time>
      </trkpt>
      <trkpt lat="44.65254" lon="-0.87824">
        <ele>40.7</ele>
        <time>2021-06-01T10:49:24.465Z</time>
      </trkpt>
      <trkpt lat="44.65258" lon="-0.8782">
        <ele>40.6</ele>
        <time>2021-06-01T10:49:25.246Z</time>
      </trkpt>
      <trkpt lat="44.65271" lon="-0.87801">
        <ele>40.4</ele>
        <time>2021-06-01T10:49:28.610Z</time>
      </trkpt>
      <trkpt lat="44.65264" lon="-0.87777">
        <ele>39.2</ele>
        <time>2021-06-01T10:49:30.540Z</time>
      </trkpt>
      <trkpt lat="44.65264" lon="-0.87749">
        <ele>38.2</ele>
        <time>2021-06-01T10:49:32.890Z</time>
      </trkpt>
      <trkpt lat="44.65262" lon="-0.87721">
        <ele>38.4</ele>
        <time>2021-06-01T10:49:38.944Z</time>
      </trkpt>
      <trkpt lat="44.65258" lon="-0.87695">
        <ele>38.3</ele>
        <time>2021-06-01T10:49:43.754Z</time>
      </trkpt>
      <trkpt lat="44.65251" lon="-0.87669">
        <ele>38.1</ele>
        <time>2021-06-01T10:49:47.328Z</time>
      </trkpt>
      <trkpt lat="44.65236" lon="-0.8765">
        <ele>36.7</ele>
        <time>2021-06-01T10:49:49.604Z</time>
      </trkpt>
      <trkpt lat="44.65222" lon="-0.87632">
        <ele>35.6</ele>
        <time>2021-06-01T10:49:51.701Z</time>
      </trkpt>
      <trkpt lat="44.65207" lon="-0.87613">
        <ele>34.7</ele>
        <time>2021-06-01T10:49:54.205Z</time>
      </trkpt>
      <trkpt lat="44.65193" lon="-0.87593">
        <ele>34.3</ele>
        <time>2021-06-01T10:49:57.393Z</time>
      </trkpt>
      <trkpt lat="44.65176" lon="-0.87579">
        <ele>33.4</ele>
        <time>2021-06-01T10:49:59.812Z</time>
      </trkpt>
      <trkpt lat="44.65155" lon="-0.87574">
        <ele>32.1</ele>
        <time>2021-06-01T10:50:02.109Z</time>
      </trkpt>
      <trkpt lat="44.65132" lon="-0.87564">
        <ele>31.2</ele>
        <time>2021-06-01T10:50:05.304Z</time>
      </trkpt>
      <trkpt lat="44.65113" lon="-0.87555">
        <ele>30.3</ele>
        <time>2021-06-01T10:50:07.784Z</time>
      </trkpt>
      <trkpt lat="44.65094" lon="-0.87543">
        <ele>29.4</ele>
        <time>2021-06-01T10:50:10.400Z</time>
      </trkpt>
      <trkpt lat="44.65075" lon="-0.87526">
        <ele>29.1</ele>
        <time>2021-06-01T10:50:14.304Z</time>
      </trkpt>
      <trkpt lat="44.65072" lon="-0.87498">
        <ele>30.3</ele>
        <time>2021-06-01T10:50:24.629Z</time>
      </trkpt>
      <trkpt lat="44.65072" lon="-0.87478">
        <ele>29.8</ele>
        <time>2021-06-01T10:50:26.560Z</time>
      </trkpt>
      <trkpt lat="44.65075" lon="-0.87478">
        <ele>30</ele>
        <time>2021-06-01T10:50:28.178Z</time>
      </trkpt>
      <trkpt lat="44.65091" lon="-0.87513">
        <ele>31.1</ele>
        <time>2021-06-01T10:50:40.506Z</time>
      </trkpt>
      <trkpt lat="44.65106" lon="-0.87533">
        <ele>31.3</ele>
        <time>2021-06-01T10:50:46.739Z</time>
      </trkpt>
      <trkpt lat="44.65127" lon="-0.87543">
        <ele>32.6</ele>
        <time>2021-06-01T10:50:58.029Z</time>
      </trkpt>
      <trkpt lat="44.65149" lon="-0.87541">
        <ele>34.9</ele>
        <time>2021-06-01T10:51:14.474Z</time>
      </trkpt>
      <trkpt lat="44.65169" lon="-0.87541">
        <ele>36.6</ele>
        <time>2021-06-01T10:51:26.941Z</time>
      </trkpt>
      <trkpt lat="44.65189" lon="-0.87548">
        <ele>36.8</ele>
        <time>2021-06-01T10:51:33.157Z</time>
      </trkpt>
      <trkpt lat="44.65208" lon="-0.87556">
        <ele>37.3</ele>
        <time>2021-06-01T10:51:40.242Z</time>
      </trkpt>
      <trkpt lat="44.65226" lon="-0.87567">
        <ele>38.4</ele>
        <time>2021-06-01T10:51:50.060Z</time>
      </trkpt>
      <trkpt lat="44.65244" lon="-0.87579">
        <ele>40.2</ele>
        <time>2021-06-01T10:52:03.071Z</time>
      </trkpt>
      <trkpt lat="44.6526" lon="-0.87601">
        <ele>40.7</ele>
        <time>2021-06-01T10:52:10.802Z</time>
      </trkpt>
      <trkpt lat="44.65272" lon="-0.87631">
        <ele>40.6</ele>
        <time>2021-06-01T10:52:17.133Z</time>
      </trkpt>
      <trkpt lat="44.65277" lon="-0.87663">
        <ele>40.3</ele>
        <time>2021-06-01T10:52:21.196Z</time>
      </trkpt>
      <trkpt lat="44.65282" lon="-0.87698">
        <ele>40.3</ele>
        <time>2021-06-01T10:52:28.173Z</time>
      </trkpt>
      <trkpt lat="44.65287" lon="-0.87727">
        <ele>40.4</ele>
        <time>2021-06-01T10:52:34.269Z</time>
      </trkpt>
      <trkpt lat="44.65289" lon="-0.87753">
        <ele>40.3</ele>
        <time>2021-06-01T10:52:38.991Z</time>
      </trkpt>
      <trkpt lat="44.65288" lon="-0.87785">
        <ele>40.9</ele>
        <time>2021-06-01T10:52:47.241Z</time>
      </trkpt>
      <trkpt lat="44.65283" lon="-0.87819">
        <ele>41.4</ele>
        <time>2021-06-01T10:52:55.572Z</time>
      </trkpt>
      <trkpt lat="44.65284" lon="-0.87845">
        <ele>42.2</ele>
        <time>2021-06-01T10:53:03.992Z</time>
      </trkpt>
      <trkpt lat="44.65286" lon="-0.87875">
        <ele>43.2</ele>
        <time>2021-06-01T10:53:14.069Z</time>
      </trkpt>
      <trkpt lat="44.6529" lon="-0.87903">
        <ele>44.1</ele>
        <time>2021-06-01T10:53:23.462Z</time>
      </trkpt>
      <trkpt lat="44.65296" lon="-0.87935">
        <ele>44.4</ele>
        <time>2021-06-01T10:53:30.785Z</time>
      </trkpt>
      <trkpt lat="44.65293" lon="-0.87968">
        <ele>44.5</ele>
        <time>2021-06-01T10:53:37.549Z</time>
      </trkpt>
      <trkpt lat="44.65294" lon="-0.88002">
        <ele>44.3</ele>
        <time>2021-06-01T10:53:42.034Z</time>
      </trkpt>
      <trkpt lat="44.65294" lon="-0.88037">
        <ele>42.2</ele>
        <time>2021-06-01T10:53:44.840Z</time>
      </trkpt>
      <trkpt lat="44.65294" lon="-0.88071">
        <ele>40.1</ele>
        <time>2021-06-01T10:53:47.567Z</time>
      </trkpt>
      <trkpt lat="44.65295" lon="-0.88105">
        <ele>38.3</ele>
        <time>2021-06-01T10:53:50.295Z</time>
      </trkpt>
      <trkpt lat="44.65295" lon="-0.88137">
        <ele>36.9</ele>
        <time>2021-06-01T10:53:52.741Z</time>
      </trkpt>
      <trkpt lat="44.65295" lon="-0.88167">
        <ele>35.5</ele>
        <time>2021-06-01T10:53:54.963Z</time>
      </trkpt>
      <trkpt lat="44.65296" lon="-0.882">
        <ele>35.8</ele>
        <time>2021-06-01T10:54:02.274Z</time>
      </trkpt>
      <trkpt lat="44.65295" lon="-0.88234">
        <ele>36</ele>
        <time>2021-06-01T10:54:09.469Z</time>
      </trkpt>
      <trkpt lat="44.65292" lon="-0.88269">
        <ele>36.4</ele>
        <time>2021-06-01T10:54:17.538Z</time>
      </trkpt>
      <trkpt lat="44.65289" lon="-0.88303">
        <ele>36.8</ele>
        <time>2021-06-01T10:54:25.419Z</time>
      </trkpt>
      <trkpt lat="44.65286" lon="-0.88335">
        <ele>37.3</ele>
        <time>2021-06-01T10:54:33.300Z</time>
      </trkpt>
      <trkpt lat="44.65267" lon="-0.88349">
        <ele>36.3</ele>
        <time>2021-06-01T10:54:35.912Z</time>
      </trkpt>
      <trkpt lat="44.65248" lon="-0.88354">
        <ele>35.7</ele>
        <time>2021-06-01T10:54:38.646Z</time>
      </trkpt>
      <trkpt lat="44.65232" lon="-0.8837">
        <ele>35</ele>
        <time>2021-06-01T10:54:41.297Z</time>
      </trkpt>
      <trkpt lat="44.65218" lon="-0.88387">
        <ele>34.5</ele>
        <time>2021-06-01T10:54:44.027Z</time>
      </trkpt>
      <trkpt lat="44.65199" lon="-0.88402">
        <ele>33.8</ele>
        <time>2021-06-01T10:54:47.076Z</time>
      </trkpt>
      <trkpt lat="44.65174" lon="-0.8842">
        <ele>33.2</ele>
        <time>2021-06-01T10:54:51.493Z</time>
      </trkpt>
      <trkpt lat="44.65152" lon="-0.88432">
        <ele>33</ele>
        <time>2021-06-01T10:54:55.852Z</time>
      </trkpt>
      <trkpt lat="44.6513" lon="-0.88441">
        <ele>32.6</ele>
        <time>2021-06-01T10:54:59.626Z</time>
      </trkpt>
      <trkpt lat="44.65108" lon="-0.88443">
        <ele>32</ele>
        <time>2021-06-01T10:55:02.873Z</time>
      </trkpt>
      <trkpt lat="44.65094" lon="-0.88461">
        <ele>31.9</ele>
        <time>2021-06-01T10:55:07.696Z</time>
      </trkpt>
      <trkpt lat="44.65081" lon="-0.88481">
        <ele>31.6</ele>
        <time>2021-06-01T10:55:10.945Z</time>
      </trkpt>
      <trkpt lat="44.65077" lon="-0.88509">
        <ele>31.7</ele>
        <time>2021-06-01T10:55:16.790Z</time>
      </trkpt>
      <trkpt lat="44.65074" lon="-0.88536">
        <ele>32.3</ele>
        <time>2021-06-01T10:55:24.237Z</time>
      </trkpt>
      <trkpt lat="44.65066" lon="-0.88564">
        <ele>32.2</ele>
        <time>2021-06-01T10:55:29.741Z</time>
      </trkpt>
      <trkpt lat="44.65059" lon="-0.88587">
        <ele>31.9</ele>
        <time>2021-06-01T10:55:32.694Z</time>
      </trkpt>
      <trkpt lat="44.65062" lon="-0.88613">
        <ele>33.4</ele>
        <time>2021-06-01T10:55:43.903Z</time>
      </trkpt>
      <trkpt lat="44.65045" lon="-0.88624">
        <ele>32</ele>
        <time>2021-06-01T10:55:46.012Z</time>
      </trkpt>
      <trkpt lat="44.65035" lon="-0.88647">
        <ele>32.4</ele>
        <time>2021-06-01T10:55:52.525Z</time>
      </trkpt>
      <trkpt lat="44.65026" lon="-0.88671">
        <ele>33.2</ele>
        <time>2021-06-01T10:56:01.073Z</time>
      </trkpt>
      <trkpt lat="44.65014" lon="-0.88693">
        <ele>34.1</ele>
        <time>2021-06-01T10:56:10.284Z</time>
      </trkpt>
      <trkpt lat="44.65024" lon="-0.88717">
        <ele>36.4</ele>
        <time>2021-06-01T10:56:27.079Z</time>
      </trkpt>
      <trkpt lat="44.65005" lon="-0.88726">
        <ele>36.2</ele>
        <time>2021-06-01T10:56:30.710Z</time>
      </trkpt>
      <trkpt lat="44.64988" lon="-0.88747">
        <ele>36</ele>
        <time>2021-06-01T10:56:34.870Z</time>
      </trkpt>
      <trkpt lat="44.6497" lon="-0.88757">
        <ele>34</ele>
        <time>2021-06-01T10:56:37.052Z</time>
      </trkpt>
      <trkpt lat="44.64957" lon="-0.88776">
        <ele>33.2</ele>
        <time>2021-06-01T10:56:39.419Z</time>
      </trkpt>
      <trkpt lat="44.64938" lon="-0.88787">
        <ele>31.4</ele>
        <time>2021-06-01T10:56:41.735Z</time>
      </trkpt>
      <trkpt lat="44.64925" lon="-0.88807">
        <ele>31.1</ele>
        <time>2021-06-01T10:56:44.983Z</time>
      </trkpt>
      <trkpt lat="44.64923" lon="-0.88836">
        <ele>32.7</ele>
        <time>2021-06-01T10:56:57.100Z</time>
      </trkpt>
      <trkpt lat="44.64923" lon="-0.88862">
        <ele>33.2</ele>
        <time>2021-06-01T10:57:03.854Z</time>
      </trkpt>
      <trkpt lat="44.64915" lon="-0.88889">
        <ele>33.2</ele>
        <time>2021-06-01T10:57:09.571Z</time>
      </trkpt>
      <trkpt lat="44.64919" lon="-0.88916">
        <ele>34.1</ele>
        <time>2021-06-01T10:57:18.749Z</time>
      </trkpt>
      <trkpt lat="44.64916" lon="-0.88943">
        <ele>33.9</ele>
        <time>2021-06-01T10:57:22.254Z</time>
      </trkpt>
      <trkpt lat="44.64933" lon="-0.88959">
        <ele>34.3</ele>
        <time>2021-06-01T10:57:29.102Z</time>
      </trkpt>
      <trkpt lat="44.64944" lon="-0.88939">
        <ele>34.9</ele>
        <time>2021-06-01T10:57:36.217Z</time>
      </trkpt>
      <trkpt lat="44.64957" lon="-0.88909">
        <ele>36</ele>
        <time>2021-06-01T10:57:47.722Z</time>
      </trkpt>
      <trkpt lat="44.64971" lon="-0.88892">
        <ele>37</ele>
        <time>2021-06-01T10:57:56.852Z</time>
      </trkpt>
      <trkpt lat="44.64985" lon="-0.88874">
        <ele>38.4</ele>
        <time>2021-06-01T10:58:07.650Z</time>
      </trkpt>
      <trkpt lat="44.64997" lon="-0.88854">
        <ele>40</ele>
        <time>2021-06-01T10:58:19.348Z</time>
      </trkpt>
      <trkpt lat="44.65013" lon="-0.88841">
        <ele>40.6</ele>
        <time>2021-06-01T10:58:26.575Z</time>
      </trkpt>
      <trkpt lat="44.6503" lon="-0.88819">
        <ele>40.4</ele>
        <time>2021-06-01T10:58:30.833Z</time>
      </trkpt>
      <trkpt lat="44.65043" lon="-0.88802">
        <ele>40.1</ele>
        <time>2021-06-01T10:58:33.777Z</time>
      </trkpt>
      <trkpt lat="44.65061" lon="-0.88777">
        <ele>40.2</ele>
        <time>2021-06-01T10:58:40.991Z</time>
      </trkpt>
      <trkpt lat="44.65076" lon="-0.88756">
        <ele>40.7</ele>
        <time>2021-06-01T10:58:48.413Z</time>
      </trkpt>
      <trkpt lat="44.65093" lon="-0.88737">
        <ele>39.6</ele>
        <time>2021-06-01T10:58:50.965Z</time>
      </trkpt>
      <trkpt lat="44.65106" lon="-0.88717">
        <ele>37.9</ele>
        <time>2021-06-01T10:58:53.138Z</time>
      </trkpt>
      <trkpt lat="44.65121" lon="-0.88697">
        <ele>36.4</ele>
        <time>2021-06-01T10:58:55.468Z</time>
      </trkpt>
      <trkpt lat="44.65137" lon="-0.88676">
        <ele>35.2</ele>
        <time>2021-06-01T10:58:57.951Z</time>
      </trkpt>
      <trkpt lat="44.65154" lon="-0.88654">
        <ele>34.5</ele>
        <time>2021-06-01T10:59:01.246Z</time>
      </trkpt>
      <trkpt lat="44.65169" lon="-0.88634">
        <ele>34.4</ele>
        <time>2021-06-01T10:59:06.534Z</time>
      </trkpt>
      <trkpt lat="44.65183" lon="-0.88615">
        <ele>34.6</ele>
        <time>2021-06-01T10:59:12.436Z</time>
      </trkpt>
      <trkpt lat="44.65198" lon="-0.88598">
        <ele>34.6</ele>
        <time>2021-06-01T10:59:17.730Z</time>
      </trkpt>
      <trkpt lat="44.65213" lon="-0.8858">
        <ele>34.5</ele>
        <time>2021-06-01T10:59:22.758Z</time>
      </trkpt>
      <trkpt lat="44.65229" lon="-0.88559">
        <ele>34.5</ele>
        <time>2021-06-01T10:59:28.772Z</time>
      </trkpt>
      <trkpt lat="44.65242" lon="-0.88539">
        <ele>34.6</ele>
        <time>2021-06-01T10:59:34.332Z</time>
      </trkpt>
      <trkpt lat="44.65257" lon="-0.88521">
        <ele>34.8</ele>
        <time>2021-06-01T10:59:40.305Z</time>
      </trkpt>
      <trkpt lat="44.65269" lon="-0.88496">
        <ele>35</ele>
        <time>2021-06-01T10:59:46.750Z</time>
      </trkpt>
      <trkpt lat="44.65273" lon="-0.8847">
        <ele>35.1</ele>
        <time>2021-06-01T10:59:52.214Z</time>
      </trkpt>
      <trkpt lat="44.65272" lon="-0.88442">
        <ele>35.2</ele>
        <time>2021-06-01T10:59:57.957Z</time>
      </trkpt>
      <trkpt lat="44.65277" lon="-0.88415">
        <ele>35.4</ele>
        <time>2021-06-01T11:00:03.964Z</time>
      </trkpt>
      <trkpt lat="44.65281" lon="-0.88385">
        <ele>36</ele>
        <time>2021-06-01T11:00:11.952Z</time>
      </trkpt>
      <trkpt lat="44.65283" lon="-0.88355">
        <ele>36.7</ele>
        <time>2021-06-01T11:00:20.354Z</time>
      </trkpt>
      <trkpt lat="44.65288" lon="-0.88329">
        <ele>37.3</ele>
        <time>2021-06-01T11:00:27.736Z</time>
      </trkpt>
      <trkpt lat="44.65289" lon="-0.88303">
        <ele>36.8</ele>
        <time>2021-06-01T11:00:30.471Z</time>
      </trkpt>
      <trkpt lat="44.65291" lon="-0.88277">
        <ele>36.5</ele>
        <time>2021-06-01T11:00:33.585Z</time>
      </trkpt>
      <trkpt lat="44.65292" lon="-0.88252">
        <ele>36.1</ele>
        <time>2021-06-01T11:00:36.351Z</time>
      </trkpt>
      <trkpt lat="44.65295" lon="-0.88224">
        <ele>36</ele>
        <time>2021-06-01T11:00:41.494Z</time>
      </trkpt>
      <trkpt lat="44.65295" lon="-0.88187">
        <ele>35.7</ele>
        <time>2021-06-01T11:00:46.171Z</time>
      </trkpt>
      <trkpt lat="44.65294" lon="-0.88156">
        <ele>36</ele>
        <time>2021-06-01T11:00:53.099Z</time>
      </trkpt>
      <trkpt lat="44.65294" lon="-0.88125">
        <ele>37.4</ele>
        <time>2021-06-01T11:01:04.720Z</time>
      </trkpt>
      <trkpt lat="44.65294" lon="-0.88094">
        <ele>38.9</ele>
        <time>2021-06-01T11:01:16.732Z</time>
      </trkpt>
      <trkpt lat="44.65293" lon="-0.88062">
        <ele>40.7</ele>
        <time>2021-06-01T11:01:30.246Z</time>
      </trkpt>
      <trkpt lat="44.65294" lon="-0.88037">
        <ele>42.2</ele>
        <time>2021-06-01T11:01:41.276Z</time>
      </trkpt>
      <trkpt lat="44.65294" lon="-0.8801">
        <ele>43.8</ele>
        <time>2021-06-01T11:01:53.079Z</time>
      </trkpt>
      <trkpt lat="44.65294" lon="-0.87979">
        <ele>44.4</ele>
        <time>2021-06-01T11:02:01.149Z</time>
      </trkpt>
      <trkpt lat="44.65296" lon="-0.87948">
        <ele>44.4</ele>
        <time>2021-06-01T11:02:07.233Z</time>
      </trkpt>
      <trkpt lat="44.65305" lon="-0.8792">
        <ele>44.3</ele>
        <time>2021-06-01T11:02:12.845Z</time>
      </trkpt>
      <trkpt lat="44.65315" lon="-0.87898">
        <ele>43.8</ele>
        <time>2021-06-01T11:02:15.589Z</time>
      </trkpt>
      <trkpt lat="44.65324" lon="-0.87875">
        <ele>43.4</ele>
        <time>2021-06-01T11:02:18.524Z</time>
      </trkpt>
      <trkpt lat="44.65334" lon="-0.87851">
        <ele>43.2</ele>
        <time>2021-06-01T11:02:22.100Z</time>
      </trkpt>
      <trkpt lat="44.65345" lon="-0.87827">
        <ele>42.5</ele>
        <time>2021-06-01T11:02:24.874Z</time>
      </trkpt>
      <trkpt lat="44.65356" lon="-0.87804">
        <ele>42.2</ele>
        <time>2021-06-01T11:02:28.211Z</time>
      </trkpt>
      <trkpt lat="44.65366" lon="-0.87782">
        <ele>41.8</ele>
        <time>2021-06-01T11:02:31.126Z</time>
      </trkpt>
      <trkpt lat="44.65377" lon="-0.87757">
        <ele>41.3</ele>
        <time>2021-06-01T11:02:34.320Z</time>
      </trkpt>
      <trkpt lat="44.65388" lon="-0.87732">
        <ele>40.9</ele>
        <time>2021-06-01T11:02:37.696Z</time>
      </trkpt>
      <trkpt lat="44.65398" lon="-0.87708">
        <ele>40.6</ele>
        <time>2021-06-01T11:02:41.047Z</time>
      </trkpt>
      <trkpt lat="44.65406" lon="-0.87683">
        <ele>40.4</ele>
        <time>2021-06-01T11:02:44.565Z</time>
      </trkpt>
      <trkpt lat="44.65414" lon="-0.87655">
        <ele>40.2</ele>
        <time>2021-06-01T11:02:48.485Z</time>
      </trkpt>
      <trkpt lat="44.65423" lon="-0.87629">
        <ele>40.3</ele>
        <time>2021-06-01T11:02:54.400Z</time>
      </trkpt>
      <trkpt lat="44.65431" lon="-0.87603">
        <ele>40.6</ele>
        <time>2021-06-01T11:03:00.811Z</time>
      </trkpt>
      <trkpt lat="44.65438" lon="-0.87575">
        <ele>41</ele>
        <time>2021-06-01T11:03:07.829Z</time>
      </trkpt>
      <trkpt lat="44.65448" lon="-0.87547">
        <ele>41.4</ele>
        <time>2021-06-01T11:03:15.158Z</time>
      </trkpt>
      <trkpt lat="44.65458" lon="-0.87524">
        <ele>41.6</ele>
        <time>2021-06-01T11:03:20.982Z</time>
      </trkpt>
      <trkpt lat="44.65474" lon="-0.87501">
        <ele>41.7</ele>
        <time>2021-06-01T11:03:27.532Z</time>
      </trkpt>
      <trkpt lat="44.65491" lon="-0.87489">
        <ele>41.5</ele>
        <time>2021-06-01T11:03:30.952Z</time>
      </trkpt>
      <trkpt lat="44.65509" lon="-0.8748">
        <ele>41.7</ele>
        <time>2021-06-01T11:03:36.757Z</time>
      </trkpt>
      <trkpt lat="44.65522" lon="-0.8746">
        <ele>41.7</ele>
        <time>2021-06-01T11:03:42.052Z</time>
      </trkpt>
      <trkpt lat="44.65522" lon="-0.87433">
        <ele>40.9</ele>
        <time>2021-06-01T11:03:44.499Z</time>
      </trkpt>
      <trkpt lat="44.65524" lon="-0.87401">
        <ele>40.1</ele>
        <time>2021-06-01T11:03:47.604Z</time>
      </trkpt>
      <trkpt lat="44.65526" lon="-0.8737">
        <ele>39.4</ele>
        <time>2021-06-01T11:03:50.717Z</time>
      </trkpt>
      <trkpt lat="44.65526" lon="-0.87338">
        <ele>38.7</ele>
        <time>2021-06-01T11:03:53.947Z</time>
      </trkpt>
      <trkpt lat="44.65526" lon="-0.87305">
        <ele>37.9</ele>
        <time>2021-06-01T11:03:57.166Z</time>
      </trkpt>
      <trkpt lat="44.65527" lon="-0.87278">
        <ele>37.3</ele>
        <time>2021-06-01T11:03:59.882Z</time>
      </trkpt>
      <trkpt lat="44.65544" lon="-0.87266">
        <ele>38</ele>
        <time>2021-06-01T11:04:07.766Z</time>
      </trkpt>
      <trkpt lat="44.65564" lon="-0.87263">
        <ele>39.2</ele>
        <time>2021-06-01T11:04:18.082Z</time>
      </trkpt>
      <trkpt lat="44.65571" lon="-0.87238">
        <ele>39.3</ele>
        <time>2021-06-01T11:04:23.597Z</time>
      </trkpt>
      <trkpt lat="44.65559" lon="-0.87218">
        <ele>38.8</ele>
        <time>2021-06-01T11:04:26.349Z</time>
      </trkpt>
      <trkpt lat="44.65549" lon="-0.87194">
        <ele>38.5</ele>
        <time>2021-06-01T11:04:29.700Z</time>
      </trkpt>
      <trkpt lat="44.65539" lon="-0.87169">
        <ele>38.4</ele>
        <time>2021-06-01T11:04:34.914Z</time>
      </trkpt>
      <trkpt lat="44.6553" lon="-0.87144">
        <ele>38.4</ele>
        <time>2021-06-01T11:04:40.390Z</time>
      </trkpt>
      <trkpt lat="44.65519" lon="-0.87112">
        <ele>38.3</ele>
        <time>2021-06-01T11:04:46.940Z</time>
      </trkpt>
      <trkpt lat="44.65515" lon="-0.87087">
        <ele>38.5</ele>
        <time>2021-06-01T11:04:52.507Z</time>
      </trkpt>
      <trkpt lat="44.655" lon="-0.87071">
        <ele>37.9</ele>
        <time>2021-06-01T11:04:55.148Z</time>
      </trkpt>
      <trkpt lat="44.65493" lon="-0.87044">
        <ele>37.1</ele>
        <time>2021-06-01T11:04:57.816Z</time>
      </trkpt>
      <trkpt lat="44.65484" lon="-0.87021">
        <ele>36.4</ele>
        <time>2021-06-01T11:05:00.291Z</time>
      </trkpt>
      <trkpt lat="44.65469" lon="-0.87002">
        <ele>35.5</ele>
        <time>2021-06-01T11:05:02.795Z</time>
      </trkpt>
      <trkpt lat="44.65464" lon="-0.86974">
        <ele>35.9</ele>
        <time>2021-06-01T11:05:09.663Z</time>
      </trkpt>
      <trkpt lat="44.65447" lon="-0.86965">
        <ele>35.3</ele>
        <time>2021-06-01T11:05:12.181Z</time>
      </trkpt>
      <trkpt lat="44.6543" lon="-0.86957">
        <ele>34.7</ele>
        <time>2021-06-01T11:05:14.654Z</time>
      </trkpt>
      <trkpt lat="44.65413" lon="-0.86945">
        <ele>34.1</ele>
        <time>2021-06-01T11:05:17.331Z</time>
      </trkpt>
      <trkpt lat="44.65404" lon="-0.86921">
        <ele>34</ele>
        <time>2021-06-01T11:05:22.244Z</time>
      </trkpt>
      <trkpt lat="44.65413" lon="-0.86897">
        <ele>34.5</ele>
        <time>2021-06-01T11:05:29.196Z</time>
      </trkpt>
      <trkpt lat="44.65421" lon="-0.86874">
        <ele>34.7</ele>
        <time>2021-06-01T11:05:34.759Z</time>
      </trkpt>
      <trkpt lat="44.65429" lon="-0.86848">
        <ele>34.9</ele>
        <time>2021-06-01T11:05:40.850Z</time>
      </trkpt>
      <trkpt lat="44.6544" lon="-0.86823">
        <ele>35.2</ele>
        <time>2021-06-01T11:05:47.464Z</time>
      </trkpt>
      <trkpt lat="44.6543" lon="-0.86799">
        <ele>34.3</ele>
        <time>2021-06-01T11:05:49.898Z</time>
      </trkpt>
      <trkpt lat="44.65435" lon="-0.86772">
        <ele>34.2</ele>
        <time>2021-06-01T11:05:54.960Z</time>
      </trkpt>
      <trkpt lat="44.65454" lon="-0.86759">
        <ele>34.9</ele>
        <time>2021-06-01T11:06:03.295Z</time>
      </trkpt>
      <trkpt lat="44.65474" lon="-0.86754">
        <ele>35.8</ele>
        <time>2021-06-01T11:06:12.688Z</time>
      </trkpt>
      <trkpt lat="44.65491" lon="-0.86774">
        <ele>37.1</ele>
        <time>2021-06-01T11:06:23.977Z</time>
      </trkpt>
      <trkpt lat="44.6551" lon="-0.86788">
        <ele>38.2</ele>
        <time>2021-06-01T11:06:34.369Z</time>
      </trkpt>
      <trkpt lat="44.65529" lon="-0.86783">
        <ele>38.6</ele>
        <time>2021-06-01T11:06:40.922Z</time>
      </trkpt>
      <trkpt lat="44.65549" lon="-0.86773">
        <ele>38.9</ele>
        <time>2021-06-01T11:06:47.622Z</time>
      </trkpt>
      <trkpt lat="44.65571" lon="-0.86761">
        <ele>39.1</ele>
        <time>2021-06-01T11:06:54.651Z</time>
      </trkpt>
      <trkpt lat="44.65588" lon="-0.86751">
        <ele>39.2</ele>
        <time>2021-06-01T11:06:59.979Z</time>
      </trkpt>
      <trkpt lat="44.65606" lon="-0.86741">
        <ele>39.6</ele>
        <time>2021-06-01T11:07:06.538Z</time>
      </trkpt>
      <trkpt lat="44.65624" lon="-0.86726">
        <ele>39.9</ele>
        <time>2021-06-01T11:07:13.156Z</time>
      </trkpt>
      <trkpt lat="44.65636" lon="-0.86705">
        <ele>39.7</ele>
        <time>2021-06-01T11:07:16.604Z</time>
      </trkpt>
      <trkpt lat="44.65649" lon="-0.8668">
        <ele>39.2</ele>
        <time>2021-06-01T11:07:20.016Z</time>
      </trkpt>
      <trkpt lat="44.65661" lon="-0.86657">
        <ele>38.9</ele>
        <time>2021-06-01T11:07:23.469Z</time>
      </trkpt>
      <trkpt lat="44.65675" lon="-0.8663">
        <ele>39.2</ele>
        <time>2021-06-01T11:07:30.852Z</time>
      </trkpt>
      <trkpt lat="44.65681" lon="-0.86599">
        <ele>39.2</ele>
        <time>2021-06-01T11:07:37.131Z</time>
      </trkpt>
      <trkpt lat="44.65693" lon="-0.8657">
        <ele>39.7</ele>
        <time>2021-06-01T11:07:45.245Z</time>
      </trkpt>
      <trkpt lat="44.65706" lon="-0.86548">
        <ele>40.5</ele>
        <time>2021-06-01T11:07:53.981Z</time>
      </trkpt>
      <trkpt lat="44.65716" lon="-0.86527">
        <ele>41.2</ele>
        <time>2021-06-01T11:08:01.659Z</time>
      </trkpt>
      <trkpt lat="44.65726" lon="-0.86505">
        <ele>41.9</ele>
        <time>2021-06-01T11:08:09.452Z</time>
      </trkpt>
      <trkpt lat="44.65736" lon="-0.86474">
        <ele>41.7</ele>
        <time>2021-06-01T11:08:13.938Z</time>
      </trkpt>
      <trkpt lat="44.65745" lon="-0.8645">
        <ele>41.4</ele>
        <time>2021-06-01T11:08:17.191Z</time>
      </trkpt>
      <trkpt lat="44.65753" lon="-0.86426">
        <ele>41.2</ele>
        <time>2021-06-01T11:08:20.576Z</time>
      </trkpt>
      <trkpt lat="44.65763" lon="-0.86404">
        <ele>41.3</ele>
        <time>2021-06-01T11:08:25.943Z</time>
      </trkpt>
      <trkpt lat="44.65775" lon="-0.86384">
        <ele>41.5</ele>
        <time>2021-06-01T11:08:31.615Z</time>
      </trkpt>
      <trkpt lat="44.65788" lon="-0.86363">
        <ele>41.7</ele>
        <time>2021-06-01T11:08:37.610Z</time>
      </trkpt>
      <trkpt lat="44.65795" lon="-0.86397">
        <ele>42.4</ele>
        <time>2021-06-01T11:08:46.891Z</time>
      </trkpt>
      <trkpt lat="44.65798" lon="-0.86429">
        <ele>43</ele>
        <time>2021-06-01T11:08:55.185Z</time>
      </trkpt>
      <trkpt lat="44.65801" lon="-0.86463">
        <ele>43.7</ele>
        <time>2021-06-01T11:09:04.271Z</time>
      </trkpt>
      <trkpt lat="44.65801" lon="-0.86492">
        <ele>44.3</ele>
        <time>2021-06-01T11:09:11.997Z</time>
      </trkpt>
      <trkpt lat="44.65798" lon="-0.86522">
        <ele>43.8</ele>
        <time>2021-06-01T11:09:15.315Z</time>
      </trkpt>
      <trkpt lat="44.65795" lon="-0.86553">
        <ele>42.9</ele>
        <time>2021-06-01T11:09:18.183Z</time>
      </trkpt>
      <trkpt lat="44.65792" lon="-0.86583">
        <ele>42</ele>
        <time>2021-06-01T11:09:20.926Z</time>
      </trkpt>
      <trkpt lat="44.65791" lon="-0.86609">
        <ele>42.1</ele>
        <time>2021-06-01T11:09:26.279Z</time>
      </trkpt>
      <trkpt lat="44.65787" lon="-0.86636">
        <ele>42.2</ele>
        <time>2021-06-01T11:09:31.933Z</time>
      </trkpt>
      <trkpt lat="44.65785" lon="-0.86663">
        <ele>42.4</ele>
        <time>2021-06-01T11:09:37.794Z</time>
      </trkpt>
      <trkpt lat="44.65781" lon="-0.86691">
        <ele>42.6</ele>
        <time>2021-06-01T11:09:43.929Z</time>
      </trkpt>
      <trkpt lat="44.65778" lon="-0.86718">
        <ele>42.7</ele>
        <time>2021-06-01T11:09:49.534Z</time>
      </trkpt>
      <trkpt lat="44.65775" lon="-0.86744">
        <ele>42.9</ele>
        <time>2021-06-01T11:09:55.239Z</time>
      </trkpt>
      <trkpt lat="44.65772" lon="-0.86772">
        <ele>42.7</ele>
        <time>2021-06-01T11:09:58.888Z</time>
      </trkpt>
      <trkpt lat="44.65769" lon="-0.86799">
        <ele>42.4</ele>
        <time>2021-06-01T11:10:02.170Z</time>
      </trkpt>
      <trkpt lat="44.65766" lon="-0.86825">
        <ele>42.1</ele>
        <time>2021-06-01T11:10:05.310Z</time>
      </trkpt>
      <trkpt lat="44.65763" lon="-0.86851">
        <ele>42.1</ele>
        <time>2021-06-01T11:10:10.458Z</time>
      </trkpt>
      <trkpt lat="44.65762" lon="-0.8688">
        <ele>42.2</ele>
        <time>2021-06-01T11:10:16.395Z</time>
      </trkpt>
      <trkpt lat="44.65759" lon="-0.86909">
        <ele>42.2</ele>
        <time>2021-06-01T11:10:22.123Z</time>
      </trkpt>
      <trkpt lat="44.65755" lon="-0.86941">
        <ele>42.7</ele>
        <time>2021-06-01T11:10:30.042Z</time>
      </trkpt>
      <trkpt lat="44.65751" lon="-0.86972">
        <ele>43.3</ele>
        <time>2021-06-01T11:10:38.199Z</time>
      </trkpt>
      <trkpt lat="44.65746" lon="-0.87003">
        <ele>43.8</ele>
        <time>2021-06-01T11:10:45.990Z</time>
      </trkpt>
      <trkpt lat="44.65742" lon="-0.87032">
        <ele>43</ele>
        <time>2021-06-01T11:10:48.760Z</time>
      </trkpt>
      <trkpt lat="44.65739" lon="-0.87061">
        <ele>42.2</ele>
        <time>2021-06-01T11:10:51.500Z</time>
      </trkpt>
      <trkpt lat="44.65735" lon="-0.8709">
        <ele>41.8</ele>
        <time>2021-06-01T11:10:54.895Z</time>
      </trkpt>
      <trkpt lat="44.6573" lon="-0.87118">
        <ele>42.5</ele>
        <time>2021-06-01T11:11:03.099Z</time>
      </trkpt>
      <trkpt lat="44.65724" lon="-0.87148">
        <ele>43</ele>
        <time>2021-06-01T11:11:10.775Z</time>
      </trkpt>
      <trkpt lat="44.65718" lon="-0.87179">
        <ele>43</ele>
        <time>2021-06-01T11:11:17.054Z</time>
      </trkpt>
      <trkpt lat="44.65713" lon="-0.8721">
        <ele>42.5</ele>
        <time>2021-06-01T11:11:20.579Z</time>
      </trkpt>
      <trkpt lat="44.65708" lon="-0.87239">
        <ele>42</ele>
        <time>2021-06-01T11:11:23.834Z</time>
      </trkpt>
      <trkpt lat="44.65702" lon="-0.87267">
        <ele>41.9</ele>
        <time>2021-06-01T11:11:29.157Z</time>
      </trkpt>
      <trkpt lat="44.65697" lon="-0.87294">
        <ele>42.1</ele>
        <time>2021-06-01T11:11:35.164Z</time>
      </trkpt>
      <trkpt lat="44.65693" lon="-0.8732">
        <ele>42.4</ele>
        <time>2021-06-01T11:11:41.247Z</time>
      </trkpt>
      <trkpt lat="44.65687" lon="-0.87345">
        <ele>42.4</ele>
        <time>2021-06-01T11:11:46.403Z</time>
      </trkpt>
      <trkpt lat="44.65681" lon="-0.87377">
        <ele>42.1</ele>
        <time>2021-06-01T11:11:50.514Z</time>
      </trkpt>
      <trkpt lat="44.65673" lon="-0.87405">
        <ele>42</ele>
        <time>2021-06-01T11:11:56.018Z</time>
      </trkpt>
      <trkpt lat="44.6567" lon="-0.87431">
        <ele>42.3</ele>
        <time>2021-06-01T11:12:02.051Z</time>
      </trkpt>
      <trkpt lat="44.65671" lon="-0.87465">
        <ele>43.1</ele>
        <time>2021-06-01T11:12:11.588Z</time>
      </trkpt>
      <trkpt lat="44.65673" lon="-0.8749">
        <ele>43.6</ele>
        <time>2021-06-01T11:12:18.196Z</time>
      </trkpt>
      <trkpt lat="44.65673" lon="-0.87518">
        <ele>44.1</ele>
        <time>2021-06-01T11:12:25.303Z</time>
      </trkpt>
      <trkpt lat="44.65672" lon="-0.87544">
        <ele>44.5</ele>
        <time>2021-06-01T11:12:31.646Z</time>
      </trkpt>
      <trkpt lat="44.65673" lon="-0.8757">
        <ele>44.8</ele>
        <time>2021-06-01T11:12:37.622Z</time>
      </trkpt>
      <trkpt lat="44.65676" lon="-0.87602">
        <ele>45.4</ele>
        <time>2021-06-01T11:12:45.915Z</time>
      </trkpt>
      <trkpt lat="44.65676" lon="-0.8763">
        <ele>46.1</ele>
        <time>2021-06-01T11:12:53.985Z</time>
      </trkpt>
      <trkpt lat="44.65677" lon="-0.87657">
        <ele>46.8</ele>
        <time>2021-06-01T11:13:01.912Z</time>
      </trkpt>
      <trkpt lat="44.65678" lon="-0.87689">
        <ele>47</ele>
        <time>2021-06-01T11:13:08.719Z</time>
      </trkpt>
      <trkpt lat="44.6568" lon="-0.87719">
        <ele>46.9</ele>
        <time>2021-06-01T11:13:14.215Z</time>
      </trkpt>
      <trkpt lat="44.65684" lon="-0.87744">
        <ele>46.8</ele>
        <time>2021-06-01T11:13:18.834Z</time>
      </trkpt>
      <trkpt lat="44.65683" lon="-0.8777">
        <ele>45.8</ele>
        <time>2021-06-01T11:13:20.950Z</time>
      </trkpt>
      <trkpt lat="44.65686" lon="-0.87801">
        <ele>44.2</ele>
        <time>2021-06-01T11:13:23.459Z</time>
      </trkpt>
      <trkpt lat="44.65686" lon="-0.87829">
        <ele>42.8</ele>
        <time>2021-06-01T11:13:25.704Z</time>
      </trkpt>
      <trkpt lat="44.65688" lon="-0.87859">
        <ele>41.6</ele>
        <time>2021-06-01T11:13:28.112Z</time>
      </trkpt>
      <trkpt lat="44.65695" lon="-0.87883">
        <ele>40.7</ele>
        <time>2021-06-01T11:13:30.316Z</time>
      </trkpt>
      <trkpt lat="44.65696" lon="-0.87908">
        <ele>39.9</ele>
        <time>2021-06-01T11:13:32.518Z</time>
      </trkpt>
      <trkpt lat="44.657" lon="-0.87939">
        <ele>39.3</ele>
        <time>2021-06-01T11:13:35.835Z</time>
      </trkpt>
      <trkpt lat="44.6569" lon="-0.87962">
        <ele>38.9</ele>
        <time>2021-06-01T11:13:38.868Z</time>
      </trkpt>
      <trkpt lat="44.65672" lon="-0.87975">
        <ele>38.6</ele>
        <time>2021-06-01T11:13:42.310Z</time>
      </trkpt>
      <trkpt lat="44.65656" lon="-0.87989">
        <ele>38.2</ele>
        <time>2021-06-01T11:13:45.279Z</time>
      </trkpt>
      <trkpt lat="44.65639" lon="-0.87999">
        <ele>38</ele>
        <time>2021-06-01T11:13:48.577Z</time>
      </trkpt>
      <trkpt lat="44.65622" lon="-0.88004">
        <ele>38</ele>
        <time>2021-06-01T11:13:53.348Z</time>
      </trkpt>
      <trkpt lat="44.65603" lon="-0.88012">
        <ele>38.1</ele>
        <time>2021-06-01T11:13:59.062Z</time>
      </trkpt>
      <trkpt lat="44.65581" lon="-0.8802">
        <ele>38.2</ele>
        <time>2021-06-01T11:14:05.567Z</time>
      </trkpt>
      <trkpt lat="44.65564" lon="-0.8803">
        <ele>38.4</ele>
        <time>2021-06-01T11:14:11.189Z</time>
      </trkpt>
      <trkpt lat="44.65545" lon="-0.88041">
        <ele>38.5</ele>
        <time>2021-06-01T11:14:17.098Z</time>
      </trkpt>
      <trkpt lat="44.65528" lon="-0.88053">
        <ele>38.6</ele>
        <time>2021-06-01T11:14:22.589Z</time>
      </trkpt>
      <trkpt lat="44.65511" lon="-0.8807">
        <ele>38.8</ele>
        <time>2021-06-01T11:14:28.873Z</time>
      </trkpt>
      <trkpt lat="44.655" lon="-0.88092">
        <ele>39.4</ele>
        <time>2021-06-01T11:14:36.247Z</time>
      </trkpt>
      <trkpt lat="44.65501" lon="-0.88118">
        <ele>40.7</ele>
        <time>2021-06-01T11:14:46.502Z</time>
      </trkpt>
      <trkpt lat="44.65503" lon="-0.88146">
        <ele>42</ele>
        <time>2021-06-01T11:14:57.162Z</time>
      </trkpt>
      <trkpt lat="44.65505" lon="-0.88179">
        <ele>42.8</ele>
        <time>2021-06-01T11:15:06.557Z</time>
      </trkpt>
      <trkpt lat="44.65506" lon="-0.88207">
        <ele>42.4</ele>
        <time>2021-06-01T11:15:09.741Z</time>
      </trkpt>
      <trkpt lat="44.65515" lon="-0.8823">
        <ele>42.1</ele>
        <time>2021-06-01T11:15:12.869Z</time>
      </trkpt>
      <trkpt lat="44.65527" lon="-0.88253">
        <ele>41.7</ele>
        <time>2021-06-01T11:15:16.122Z</time>
      </trkpt>
      <trkpt lat="44.65531" lon="-0.88281">
        <ele>41.4</ele>
        <time>2021-06-01T11:15:19.580Z</time>
      </trkpt>
      <trkpt lat="44.65535" lon="-0.88307">
        <ele>41</ele>
        <time>2021-06-01T11:15:22.563Z</time>
      </trkpt>
      <trkpt lat="44.65542" lon="-0.88331">
        <ele>40.5</ele>
        <time>2021-06-01T11:15:25.285Z</time>
      </trkpt>
      <trkpt lat="44.6555" lon="-0.88358">
        <ele>39.6</ele>
        <time>2021-06-01T11:15:27.897Z</time>
      </trkpt>
      <trkpt lat="44.65555" lon="-0.88387">
        <ele>38.7</ele>
        <time>2021-06-01T11:15:30.582Z</time>
      </trkpt>
      <trkpt lat="44.65561" lon="-0.88413">
        <ele>37.9</ele>
        <time>2021-06-01T11:15:33.072Z</time>
      </trkpt>
      <trkpt lat="44.65568" lon="-0.88441">
        <ele>37.9</ele>
        <time>2021-06-01T11:15:38.872Z</time>
      </trkpt>
      <trkpt lat="44.65575" lon="-0.88472">
        <ele>38</ele>
        <time>2021-06-01T11:15:45.491Z</time>
      </trkpt>
      <trkpt lat="44.65579" lon="-0.885">
        <ele>38.2</ele>
        <time>2021-06-01T11:15:51.625Z</time>
      </trkpt>
      <trkpt lat="44.65567" lon="-0.88521">
        <ele>38.8</ele>
        <time>2021-06-01T11:15:59.007Z</time>
      </trkpt>
      <trkpt lat="44.65563" lon="-0.88526">
        <ele>39</ele>
        <time>2021-06-01T11:16:01.243Z</time>
      </trkpt>
      <trkpt lat="44.65559" lon="-0.88529">
        <ele>39.2</ele>
        <time>2021-06-01T11:16:03.333Z</time>
      </trkpt>
      <trkpt lat="44.65554" lon="-0.8854">
        <ele>39.4</ele>
        <time>2021-06-01T11:16:06.512Z</time>
      </trkpt>
      <trkpt lat="44.65538" lon="-0.8856">
        <ele>40.2</ele>
        <time>2021-06-01T11:16:15.455Z</time>
      </trkpt>
      <trkpt lat="44.65523" lon="-0.88581">
        <ele>40.9</ele>
        <time>2021-06-01T11:16:23.798Z</time>
      </trkpt>
      <trkpt lat="44.65512" lon="-0.88605">
        <ele>41.9</ele>
        <time>2021-06-01T11:16:33.507Z</time>
      </trkpt>
      <trkpt lat="44.65496" lon="-0.88628">
        <ele>43</ele>
        <time>2021-06-01T11:16:44.363Z</time>
      </trkpt>
      <trkpt lat="44.65477" lon="-0.88641">
        <ele>43.3</ele>
        <time>2021-06-01T11:16:51.037Z</time>
      </trkpt>
      <trkpt lat="44.65456" lon="-0.88651">
        <ele>43.5</ele>
        <time>2021-06-01T11:16:57.677Z</time>
      </trkpt>
      <trkpt lat="44.65439" lon="-0.88674">
        <ele>44.1</ele>
        <time>2021-06-01T11:17:06.128Z</time>
      </trkpt>
      <trkpt lat="44.65429" lon="-0.88696">
        <ele>44.6</ele>
        <time>2021-06-01T11:17:12.901Z</time>
      </trkpt>
      <trkpt lat="44.65418" lon="-0.88723">
        <ele>45.3</ele>
        <time>2021-06-01T11:17:21.462Z</time>
      </trkpt>
      <trkpt lat="44.6541" lon="-0.88749">
        <ele>45.5</ele>
        <time>2021-06-01T11:17:27.552Z</time>
      </trkpt>
      <trkpt lat="44.654" lon="-0.88773">
        <ele>44.2</ele>
        <time>2021-06-01T11:17:29.610Z</time>
      </trkpt>
      <trkpt lat="44.65392" lon="-0.88795">
        <ele>43.1</ele>
        <time>2021-06-01T11:17:31.483Z</time>
      </trkpt>
      <trkpt lat="44.65381" lon="-0.8882">
        <ele>41.8</ele>
        <time>2021-06-01T11:17:33.719Z</time>
      </trkpt>
      <trkpt lat="44.6537" lon="-0.8884">
        <ele>40.7</ele>
        <time>2021-06-01T11:17:35.656Z</time>
      </trkpt>
      <trkpt lat="44.65357" lon="-0.88862">
        <ele>40</ele>
        <time>2021-06-01T11:17:38.437Z</time>
      </trkpt>
      <trkpt lat="44.65342" lon="-0.88884">
        <ele>39.6</ele>
        <time>2021-06-01T11:17:41.965Z</time>
      </trkpt>
      <trkpt lat="44.6533" lon="-0.88903">
        <ele>39.4</ele>
        <time>2021-06-01T11:17:45.190Z</time>
      </trkpt>
      <trkpt lat="44.65317" lon="-0.88926">
        <ele>39.2</ele>
        <time>2021-06-01T11:17:48.994Z</time>
      </trkpt>
      <trkpt lat="44.65304" lon="-0.88945">
        <ele>38.9</ele>
        <time>2021-06-01T11:17:52.138Z</time>
      </trkpt>
      <trkpt lat="44.65288" lon="-0.8897">
        <ele>38.7</ele>
        <time>2021-06-01T11:17:56.565Z</time>
      </trkpt>
      <trkpt lat="44.65277" lon="-0.8899">
        <ele>38.6</ele>
        <time>2021-06-01T11:18:01.118Z</time>
      </trkpt>
      <trkpt lat="44.65263" lon="-0.89008">
        <ele>37.7</ele>
        <time>2021-06-01T11:18:03.411Z</time>
      </trkpt>
      <trkpt lat="44.65248" lon="-0.89024">
        <ele>36.5</ele>
        <time>2021-06-01T11:18:05.400Z</time>
      </trkpt>
      <trkpt lat="44.65236" lon="-0.89044">
        <ele>36.3</ele>
        <time>2021-06-01T11:18:08.735Z</time>
      </trkpt>
      <trkpt lat="44.65223" lon="-0.89068">
        <ele>36.2</ele>
        <time>2021-06-01T11:18:14.238Z</time>
      </trkpt>
      <trkpt lat="44.65205" lon="-0.89094">
        <ele>36.1</ele>
        <time>2021-06-01T11:18:20.932Z</time>
      </trkpt>
      <trkpt lat="44.65188" lon="-0.89117">
        <ele>35.4</ele>
        <time>2021-06-01T11:18:24.318Z</time>
      </trkpt>
      <trkpt lat="44.65173" lon="-0.89139">
        <ele>34.5</ele>
        <time>2021-06-01T11:18:27.083Z</time>
      </trkpt>
      <trkpt lat="44.65161" lon="-0.89159">
        <ele>33.8</ele>
        <time>2021-06-01T11:18:29.548Z</time>
      </trkpt>
      <trkpt lat="44.65148" lon="-0.89181">
        <ele>33.7</ele>
        <time>2021-06-01T11:18:34.747Z</time>
      </trkpt>
      <trkpt lat="44.65134" lon="-0.89206">
        <ele>33.5</ele>
        <time>2021-06-01T11:18:38.908Z</time>
      </trkpt>
      <trkpt lat="44.6512" lon="-0.89227">
        <ele>33.1</ele>
        <time>2021-06-01T11:18:42.197Z</time>
      </trkpt>
      <trkpt lat="44.65103" lon="-0.89248">
        <ele>32.6</ele>
        <time>2021-06-01T11:18:45.726Z</time>
      </trkpt>
      <trkpt lat="44.65088" lon="-0.89268">
        <ele>32.5</ele>
        <time>2021-06-01T11:18:51.014Z</time>
      </trkpt>
      <trkpt lat="44.65075" lon="-0.89289">
        <ele>31.9</ele>
        <time>2021-06-01T11:18:53.837Z</time>
      </trkpt>
      <trkpt lat="44.65059" lon="-0.89302">
        <ele>31.4</ele>
        <time>2021-06-01T11:18:56.564Z</time>
      </trkpt>
      <trkpt lat="44.65038" lon="-0.8932">
        <ele>31.1</ele>
        <time>2021-06-01T11:19:00.890Z</time>
      </trkpt>
      <trkpt lat="44.65023" lon="-0.89333">
        <ele>31</ele>
        <time>2021-06-01T11:19:05.344Z</time>
      </trkpt>
      <trkpt lat="44.65" lon="-0.89356">
        <ele>30.7</ele>
        <time>2021-06-01T11:19:10.411Z</time>
      </trkpt>
      <trkpt lat="44.64982" lon="-0.89374">
        <ele>30.6</ele>
        <time>2021-06-01T11:19:16.087Z</time>
      </trkpt>
      <trkpt lat="44.64973" lon="-0.89398">
        <ele>30.5</ele>
        <time>2021-06-01T11:19:20.999Z</time>
      </trkpt>
      <trkpt lat="44.64965" lon="-0.89422">
        <ele>30.3</ele>
        <time>2021-06-01T11:19:24.385Z</time>
      </trkpt>
      <trkpt lat="44.64962" lon="-0.89448">
        <ele>29.9</ele>
        <time>2021-06-01T11:19:27.332Z</time>
      </trkpt>
      <trkpt lat="44.64957" lon="-0.89476">
        <ele>29.4</ele>
        <time>2021-06-01T11:19:30.454Z</time>
      </trkpt>
      <trkpt lat="44.64965" lon="-0.895">
        <ele>29</ele>
        <time>2021-06-01T11:19:33.425Z</time>
      </trkpt>
      <trkpt lat="44.64975" lon="-0.89525">
        <ele>28.6</ele>
        <time>2021-06-01T11:19:36.700Z</time>
      </trkpt>
      <trkpt lat="44.64988" lon="-0.89544">
        <ele>28.1</ele>
        <time>2021-06-01T11:19:39.479Z</time>
      </trkpt>
      <trkpt lat="44.65002" lon="-0.89561">
        <ele>27.6</ele>
        <time>2021-06-01T11:19:42.210Z</time>
      </trkpt>
      <trkpt lat="44.6502" lon="-0.89549">
        <ele>28.2</ele>
        <time>2021-06-01T11:19:49.769Z</time>
      </trkpt>
      <trkpt lat="44.65035" lon="-0.89534">
        <ele>29.2</ele>
        <time>2021-06-01T11:19:58.870Z</time>
      </trkpt>
      <trkpt lat="44.65054" lon="-0.89534">
        <ele>29.7</ele>
        <time>2021-06-01T11:20:05.748Z</time>
      </trkpt>
      <trkpt lat="44.65071" lon="-0.89546">
        <ele>29.4</ele>
        <time>2021-06-01T11:20:08.946Z</time>
      </trkpt>
      <trkpt lat="44.6509" lon="-0.89548">
        <ele>29.7</ele>
        <time>2021-06-01T11:20:15.063Z</time>
      </trkpt>
      <trkpt lat="44.65108" lon="-0.89551">
        <ele>29.9</ele>
        <time>2021-06-01T11:20:20.603Z</time>
      </trkpt>
      <trkpt lat="44.65125" lon="-0.89541">
        <ele>30.8</ele>
        <time>2021-06-01T11:20:29.390Z</time>
      </trkpt>
    </trkseg>
  </trk>
</gpx>